<?xml version="1.0" encoding="UTF-8" standalone="no" ?>
<gpx xmlns="http://www.topografix.com/GPX/1/1" xmlns:xsi="http://www.w3.org/2001/XMLSchema-instance" xsi:schemaLocation="http://www.topografix.com/GPX/1/1 http://www.topografix.com/GPX/1/1/gpx.xsd" version="1.1" creator="VisuGPX - https://www.visugpx.com">
  <metadata>
    <name>Coulombs 10KM</name>
  </metadata>
  <trk>
    <name><![CDATA[Coulombs Course à pied]]></name>
    <extensions>
      <line xmlns="http://www.topografix.com/GPX/gpx_style/0/2">
        <color>0000FF</color>
        <width>4</width>
      </line>
    </extensions>
    <trkseg>
      <trkpt lat="49.25048" lon="-0.56342">
        <ele>60.400001525879</ele>
        <time>2018-02-04T08:03:02.000Z</time>
      </trkpt>
      <trkpt lat="49.25044" lon="-0.56338">
        <ele>60.599998474121</ele>
        <time>2018-02-04T08:03:07.000Z</time>
      </trkpt>
      <trkpt lat="49.25046" lon="-0.56312">
        <ele>61.200000762939</ele>
        <time>2018-02-04T08:03:27.000Z</time>
      </trkpt>
      <trkpt lat="49.25059" lon="-0.56291">
        <ele>61.200000762939</ele>
        <time>2018-02-04T08:03:48.000Z</time>
      </trkpt>
      <trkpt lat="49.25075" lon="-0.56274">
        <ele>61</ele>
        <time>2018-02-04T08:04:03.000Z</time>
      </trkpt>
      <trkpt lat="49.25087" lon="-0.56254">
        <ele>61</ele>
        <time>2018-02-04T08:04:20.000Z</time>
      </trkpt>
      <trkpt lat="49.25099" lon="-0.56243">
        <ele>60.799999237061</ele>
        <time>2018-02-04T08:04:30.000Z</time>
      </trkpt>
      <trkpt lat="49.25104" lon="-0.56238">
        <ele>60.799999237061</ele>
        <time>2018-02-04T08:04:34.000Z</time>
      </trkpt>
      <trkpt lat="49.2512" lon="-0.56225">
        <ele>60.599998474121</ele>
        <time>2018-02-04T08:04:49.000Z</time>
      </trkpt>
      <trkpt lat="49.25139" lon="-0.56218">
        <ele>60</ele>
        <time>2018-02-04T08:05:04.000Z</time>
      </trkpt>
      <trkpt lat="49.25156" lon="-0.5622">
        <ele>59.400001525879</ele>
        <time>2018-02-04T08:05:21.000Z</time>
      </trkpt>
      <trkpt lat="49.2516" lon="-0.56221">
        <ele>59.200000762939</ele>
        <time>2018-02-04T08:05:25.000Z</time>
      </trkpt>
      <trkpt lat="49.25177" lon="-0.56226">
        <ele>58.400001525879</ele>
        <time>2018-02-04T08:05:43.000Z</time>
      </trkpt>
      <trkpt lat="49.25195" lon="-0.56224">
        <ele>58</ele>
        <time>2018-02-04T08:05:56.000Z</time>
      </trkpt>
      <trkpt lat="49.25213" lon="-0.56224">
        <ele>57</ele>
        <time>2018-02-04T08:06:10.000Z</time>
      </trkpt>
      <trkpt lat="49.25231" lon="-0.56213">
        <ele>56.400001525879</ele>
        <time>2018-02-04T08:06:25.000Z</time>
      </trkpt>
      <trkpt lat="49.25243" lon="-0.56193">
        <ele>56.599998474121</ele>
        <time>2018-02-04T08:06:40.000Z</time>
      </trkpt>
      <trkpt lat="49.25252" lon="-0.56167">
        <ele>57.200000762939</ele>
        <time>2018-02-04T08:06:55.000Z</time>
      </trkpt>
      <trkpt lat="49.25256" lon="-0.56149">
        <ele>57.400001525879</ele>
        <time>2018-02-04T08:07:06.000Z</time>
      </trkpt>
      <trkpt lat="49.2524" lon="-0.56132">
        <ele>58.400001525879</ele>
        <time>2018-02-04T08:07:24.000Z</time>
      </trkpt>
      <trkpt lat="49.2523" lon="-0.56109">
        <ele>59</ele>
        <time>2018-02-04T08:07:39.000Z</time>
      </trkpt>
      <trkpt lat="49.25228" lon="-0.56083">
        <ele>59.400001525879</ele>
        <time>2018-02-04T08:07:54.000Z</time>
      </trkpt>
      <trkpt lat="49.2523" lon="-0.56082">
        <ele>59.400001525879</ele>
        <time>2018-02-04T08:07:55.000Z</time>
      </trkpt>
      <trkpt lat="49.25246" lon="-0.5607">
        <ele>59</ele>
        <time>2018-02-04T08:08:09.000Z</time>
      </trkpt>
      <trkpt lat="49.25251" lon="-0.56062">
        <ele>59</ele>
        <time>2018-02-04T08:08:15.000Z</time>
      </trkpt>
      <trkpt lat="49.25251" lon="-0.56051">
        <ele>59</ele>
        <time>2018-02-04T08:08:21.000Z</time>
      </trkpt>
      <trkpt lat="49.2525" lon="-0.56023">
        <ele>59</ele>
        <time>2018-02-04T08:08:37.000Z</time>
      </trkpt>
      <trkpt lat="49.25252" lon="-0.55994">
        <ele>59</ele>
        <time>2018-02-04T08:08:52.000Z</time>
      </trkpt>
      <trkpt lat="49.25252" lon="-0.55991">
        <ele>59</ele>
        <time>2018-02-04T08:08:54.000Z</time>
      </trkpt>
      <trkpt lat="49.25252" lon="-0.55979">
        <ele>59.200000762939</ele>
        <time>2018-02-04T08:09:01.000Z</time>
      </trkpt>
      <trkpt lat="49.25252" lon="-0.5595">
        <ele>59.599998474121</ele>
        <time>2018-02-04T08:09:17.000Z</time>
      </trkpt>
      <trkpt lat="49.25251" lon="-0.55921">
        <ele>59.799999237061</ele>
        <time>2018-02-04T08:09:31.000Z</time>
      </trkpt>
      <trkpt lat="49.25249" lon="-0.55894">
        <ele>59.799999237061</ele>
        <time>2018-02-04T08:09:45.000Z</time>
      </trkpt>
      <trkpt lat="49.25251" lon="-0.55866">
        <ele>60</ele>
        <time>2018-02-04T08:09:59.000Z</time>
      </trkpt>
      <trkpt lat="49.25253" lon="-0.55838">
        <ele>60.200000762939</ele>
        <time>2018-02-04T08:10:13.000Z</time>
      </trkpt>
      <trkpt lat="49.25254" lon="-0.55836">
        <ele>60.200000762939</ele>
        <time>2018-02-04T08:10:14.000Z</time>
      </trkpt>
      <trkpt lat="49.25257" lon="-0.55823">
        <ele>60.200000762939</ele>
        <time>2018-02-04T08:10:21.000Z</time>
      </trkpt>
      <trkpt lat="49.25258" lon="-0.55799">
        <ele>60.599998474121</ele>
        <time>2018-02-04T08:10:33.000Z</time>
      </trkpt>
      <trkpt lat="49.25261" lon="-0.55785">
        <ele>60.599998474121</ele>
        <time>2018-02-04T08:10:41.000Z</time>
      </trkpt>
      <trkpt lat="49.25265" lon="-0.55758">
        <ele>60.799999237061</ele>
        <time>2018-02-04T08:10:55.000Z</time>
      </trkpt>
      <trkpt lat="49.25268" lon="-0.55731">
        <ele>61.200000762939</ele>
        <time>2018-02-04T08:11:03.000Z</time>
      </trkpt>
      <trkpt lat="49.25267" lon="-0.55725">
        <ele>61.200000762939</ele>
        <time>2018-02-04T08:11:07.000Z</time>
      </trkpt>
      <trkpt lat="49.25273" lon="-0.55699">
        <ele>61.599998474121</ele>
        <time>2018-02-04T08:11:24.000Z</time>
      </trkpt>
      <trkpt lat="49.25274" lon="-0.5567">
        <ele>62.200000762939</ele>
        <time>2018-02-04T08:11:40.000Z</time>
      </trkpt>
      <trkpt lat="49.25276" lon="-0.55641">
        <ele>63</ele>
        <time>2018-02-04T08:11:56.000Z</time>
      </trkpt>
      <trkpt lat="49.25278" lon="-0.55613">
        <ele>63</ele>
        <time>2018-02-04T08:12:10.000Z</time>
      </trkpt>
      <trkpt lat="49.25282" lon="-0.55591">
        <ele>63</ele>
        <time>2018-02-04T08:12:23.000Z</time>
      </trkpt>
      <trkpt lat="49.25292" lon="-0.55592">
        <ele>62.599998474121</ele>
        <time>2018-02-04T08:12:32.000Z</time>
      </trkpt>
      <trkpt lat="49.25307" lon="-0.55609">
        <ele>62.200000762939</ele>
        <time>2018-02-04T08:12:47.000Z</time>
      </trkpt>
      <trkpt lat="49.25322" lon="-0.55626">
        <ele>60.799999237061</ele>
        <time>2018-02-04T08:13:02.000Z</time>
      </trkpt>
      <trkpt lat="49.25338" lon="-0.55641">
        <ele>59.200000762939</ele>
        <time>2018-02-04T08:13:17.000Z</time>
      </trkpt>
      <trkpt lat="49.25353" lon="-0.55657">
        <ele>58.200000762939</ele>
        <time>2018-02-04T08:13:31.000Z</time>
      </trkpt>
      <trkpt lat="49.25368" lon="-0.55675">
        <ele>57.200000762939</ele>
        <time>2018-02-04T08:13:46.000Z</time>
      </trkpt>
      <trkpt lat="49.25383" lon="-0.55693">
        <ele>56.400001525879</ele>
        <time>2018-02-04T08:14:01.000Z</time>
      </trkpt>
      <trkpt lat="49.25398" lon="-0.5571">
        <ele>55</ele>
        <time>2018-02-04T08:14:15.000Z</time>
      </trkpt>
      <trkpt lat="49.25413" lon="-0.55727">
        <ele>54</ele>
        <time>2018-02-04T08:14:30.000Z</time>
      </trkpt>
      <trkpt lat="49.25428" lon="-0.55745">
        <ele>52.799999237061</ele>
        <time>2018-02-04T08:14:45.000Z</time>
      </trkpt>
      <trkpt lat="49.25443" lon="-0.55762">
        <ele>51.200000762939</ele>
        <time>2018-02-04T08:15:00.000Z</time>
      </trkpt>
      <trkpt lat="49.25457" lon="-0.55778">
        <ele>49.799999237061</ele>
        <time>2018-02-04T08:15:15.000Z</time>
      </trkpt>
      <trkpt lat="49.25461" lon="-0.55781">
        <ele>49.400001525879</ele>
        <time>2018-02-04T08:15:18.000Z</time>
      </trkpt>
      <trkpt lat="49.25476" lon="-0.55798">
        <ele>48.200000762939</ele>
        <time>2018-02-04T08:15:33.000Z</time>
      </trkpt>
      <trkpt lat="49.2549" lon="-0.55806">
        <ele>47.400001525879</ele>
        <time>2018-02-04T08:15:48.000Z</time>
      </trkpt>
      <trkpt lat="49.25502" lon="-0.55784">
        <ele>46.799999237061</ele>
        <time>2018-02-04T08:16:03.000Z</time>
      </trkpt>
      <trkpt lat="49.25504" lon="-0.55781">
        <ele>46.799999237061</ele>
        <time>2018-02-04T08:16:06.000Z</time>
      </trkpt>
      <trkpt lat="49.25518" lon="-0.55762">
        <ele>46.200000762939</ele>
        <time>2018-02-04T08:16:23.000Z</time>
      </trkpt>
      <trkpt lat="49.25533" lon="-0.55744">
        <ele>45.400001525879</ele>
        <time>2018-02-04T08:16:36.000Z</time>
      </trkpt>
      <trkpt lat="49.25544" lon="-0.55726">
        <ele>45</ele>
        <time>2018-02-04T08:16:49.000Z</time>
      </trkpt>
      <trkpt lat="49.25555" lon="-0.55713">
        <ele>44.599998474121</ele>
        <time>2018-02-04T08:17:02.000Z</time>
      </trkpt>
      <trkpt lat="49.25568" lon="-0.55692">
        <ele>44.599998474121</ele>
        <time>2018-02-04T08:17:18.000Z</time>
      </trkpt>
      <trkpt lat="49.25574" lon="-0.55681">
        <ele>44.599998474121</ele>
        <time>2018-02-04T08:17:26.000Z</time>
      </trkpt>
      <trkpt lat="49.25585" lon="-0.55656">
        <ele>44.799999237061</ele>
        <time>2018-02-04T08:17:42.000Z</time>
      </trkpt>
      <trkpt lat="49.25595" lon="-0.55632">
        <ele>45</ele>
        <time>2018-02-04T08:17:57.000Z</time>
      </trkpt>
      <trkpt lat="49.25605" lon="-0.55608">
        <ele>45.200000762939</ele>
        <time>2018-02-04T08:18:12.000Z</time>
      </trkpt>
      <trkpt lat="49.25617" lon="-0.55586">
        <ele>45.599998474121</ele>
        <time>2018-02-04T08:18:27.000Z</time>
      </trkpt>
      <trkpt lat="49.25618" lon="-0.55585">
        <ele>45.599998474121</ele>
        <time>2018-02-04T08:18:28.000Z</time>
      </trkpt>
      <trkpt lat="49.2562" lon="-0.55577">
        <ele>45.599998474121</ele>
        <time>2018-02-04T08:18:33.000Z</time>
      </trkpt>
      <trkpt lat="49.25633" lon="-0.55556">
        <ele>45.799999237061</ele>
        <time>2018-02-04T08:18:50.000Z</time>
      </trkpt>
      <trkpt lat="49.25642" lon="-0.55531">
        <ele>46.599998474121</ele>
        <time>2018-02-04T08:19:06.000Z</time>
      </trkpt>
      <trkpt lat="49.25653" lon="-0.55507">
        <ele>47.200000762939</ele>
        <time>2018-02-04T08:19:21.000Z</time>
      </trkpt>
      <trkpt lat="49.25656" lon="-0.55502">
        <ele>47.200000762939</ele>
        <time>2018-02-04T08:19:25.000Z</time>
      </trkpt>
      <trkpt lat="49.25662" lon="-0.55493">
        <ele>47.400001525879</ele>
        <time>2018-02-04T08:19:32.000Z</time>
      </trkpt>
      <trkpt lat="49.2567" lon="-0.55481">
        <ele>47.599998474121</ele>
        <time>2018-02-04T08:19:42.000Z</time>
      </trkpt>
      <trkpt lat="49.25683" lon="-0.55464">
        <ele>47.799999237061</ele>
        <time>2018-02-04T08:19:56.000Z</time>
      </trkpt>
      <trkpt lat="49.25698" lon="-0.55447">
        <ele>47.400001525879</ele>
        <time>2018-02-04T08:20:12.000Z</time>
      </trkpt>
      <trkpt lat="49.25701" lon="-0.55444">
        <ele>47.400001525879</ele>
        <time>2018-02-04T08:20:15.000Z</time>
      </trkpt>
      <trkpt lat="49.25706" lon="-0.55438">
        <ele>47.599998474121</ele>
        <time>2018-02-04T08:20:21.000Z</time>
      </trkpt>
      <trkpt lat="49.25718" lon="-0.55416">
        <ele>48</ele>
        <time>2018-02-04T08:20:39.000Z</time>
      </trkpt>
      <trkpt lat="49.2573" lon="-0.55395">
        <ele>48.400001525879</ele>
        <time>2018-02-04T08:20:55.000Z</time>
      </trkpt>
      <trkpt lat="49.25741" lon="-0.55374">
        <ele>48.799999237061</ele>
        <time>2018-02-04T08:21:11.000Z</time>
      </trkpt>
      <trkpt lat="49.25754" lon="-0.55354">
        <ele>49.400001525879</ele>
        <time>2018-02-04T08:21:27.000Z</time>
      </trkpt>
      <trkpt lat="49.25765" lon="-0.55332">
        <ele>50</ele>
        <time>2018-02-04T08:21:43.000Z</time>
      </trkpt>
      <trkpt lat="49.25778" lon="-0.55311">
        <ele>50.599998474121</ele>
        <time>2018-02-04T08:22:00.000Z</time>
      </trkpt>
      <trkpt lat="49.2579" lon="-0.5529">
        <ele>51.400001525879</ele>
        <time>2018-02-04T08:22:16.000Z</time>
      </trkpt>
      <trkpt lat="49.25801" lon="-0.55268">
        <ele>52</ele>
        <time>2018-02-04T08:22:32.000Z</time>
      </trkpt>
      <trkpt lat="49.25812" lon="-0.55246">
        <ele>52.400001525879</ele>
        <time>2018-02-04T08:22:48.000Z</time>
      </trkpt>
      <trkpt lat="49.2582" lon="-0.55228">
        <ele>52.799999237061</ele>
        <time>2018-02-04T08:23:01.000Z</time>
      </trkpt>
      <trkpt lat="49.25825" lon="-0.55216">
        <ele>53</ele>
        <time>2018-02-04T08:23:08.000Z</time>
      </trkpt>
      <trkpt lat="49.25836" lon="-0.55192">
        <ele>53</ele>
        <time>2018-02-04T08:23:24.000Z</time>
      </trkpt>
      <trkpt lat="49.25847" lon="-0.5517">
        <ele>53</ele>
        <time>2018-02-04T08:23:39.000Z</time>
      </trkpt>
      <trkpt lat="49.25859" lon="-0.55148">
        <ele>53</ele>
        <time>2018-02-04T08:23:55.000Z</time>
      </trkpt>
      <trkpt lat="49.25869" lon="-0.55124">
        <ele>53.200000762939</ele>
        <time>2018-02-04T08:24:11.000Z</time>
      </trkpt>
      <trkpt lat="49.2588" lon="-0.55101">
        <ele>53.400001525879</ele>
        <time>2018-02-04T08:24:27.000Z</time>
      </trkpt>
      <trkpt lat="49.25884" lon="-0.55092">
        <ele>53.599998474121</ele>
        <time>2018-02-04T08:24:34.000Z</time>
      </trkpt>
      <trkpt lat="49.25896" lon="-0.55069">
        <ele>53.799999237061</ele>
        <time>2018-02-04T08:24:51.000Z</time>
      </trkpt>
      <trkpt lat="49.25907" lon="-0.55047">
        <ele>54</ele>
        <time>2018-02-04T08:25:05.000Z</time>
      </trkpt>
      <trkpt lat="49.25915" lon="-0.5503">
        <ele>53.799999237061</ele>
        <time>2018-02-04T08:25:17.000Z</time>
      </trkpt>
      <trkpt lat="49.25917" lon="-0.55024">
        <ele>53.599998474121</ele>
        <time>2018-02-04T08:25:21.000Z</time>
      </trkpt>
      <trkpt lat="49.25928" lon="-0.55001">
        <ele>53.400001525879</ele>
        <time>2018-02-04T08:25:38.000Z</time>
      </trkpt>
      <trkpt lat="49.2594" lon="-0.54979">
        <ele>53.200000762939</ele>
        <time>2018-02-04T08:25:54.000Z</time>
      </trkpt>
      <trkpt lat="49.25951" lon="-0.54956">
        <ele>52.799999237061</ele>
        <time>2018-02-04T08:26:10.000Z</time>
      </trkpt>
      <trkpt lat="49.25963" lon="-0.54936">
        <ele>52.400001525879</ele>
        <time>2018-02-04T08:26:25.000Z</time>
      </trkpt>
      <trkpt lat="49.25971" lon="-0.54911">
        <ele>52</ele>
        <time>2018-02-04T08:26:41.000Z</time>
      </trkpt>
      <trkpt lat="49.25971" lon="-0.54909">
        <ele>52</ele>
        <time>2018-02-04T08:26:42.000Z</time>
      </trkpt>
      <trkpt lat="49.25971" lon="-0.54904">
        <ele>51.799999237061</ele>
        <time>2018-02-04T08:26:45.000Z</time>
      </trkpt>
      <trkpt lat="49.25958" lon="-0.54884">
        <ele>51.200000762939</ele>
        <time>2018-02-04T08:26:59.000Z</time>
      </trkpt>
      <trkpt lat="49.25956" lon="-0.54882">
        <ele>51.200000762939</ele>
        <time>2018-02-04T08:27:02.000Z</time>
      </trkpt>
      <trkpt lat="49.25943" lon="-0.54863">
        <ele>50.599998474121</ele>
        <time>2018-02-04T08:27:24.000Z</time>
      </trkpt>
      <trkpt lat="49.25928" lon="-0.54844">
        <ele>50</ele>
        <time>2018-02-04T08:27:39.000Z</time>
      </trkpt>
      <trkpt lat="49.25914" lon="-0.54827">
        <ele>49.400001525879</ele>
        <time>2018-02-04T08:27:53.000Z</time>
      </trkpt>
      <trkpt lat="49.25904" lon="-0.54813">
        <ele>48.799999237061</ele>
        <time>2018-02-04T08:28:04.000Z</time>
      </trkpt>
      <trkpt lat="49.25894" lon="-0.54801">
        <ele>48.200000762939</ele>
        <time>2018-02-04T08:28:15.000Z</time>
      </trkpt>
      <trkpt lat="49.2589" lon="-0.54794">
        <ele>47.799999237061</ele>
        <time>2018-02-04T08:28:19.000Z</time>
      </trkpt>
      <trkpt lat="49.25877" lon="-0.54776">
        <ele>47</ele>
        <time>2018-02-04T08:28:33.000Z</time>
      </trkpt>
      <trkpt lat="49.2587" lon="-0.54769">
        <ele>46.599998474121</ele>
        <time>2018-02-04T08:28:40.000Z</time>
      </trkpt>
      <trkpt lat="49.25867" lon="-0.54766">
        <ele>46.400001525879</ele>
        <time>2018-02-04T08:28:52.000Z</time>
      </trkpt>
      <trkpt lat="49.25854" lon="-0.54747">
        <ele>45.799999237061</ele>
        <time>2018-02-04T08:29:06.000Z</time>
      </trkpt>
      <trkpt lat="49.25839" lon="-0.54728">
        <ele>45.400001525879</ele>
        <time>2018-02-04T08:29:21.000Z</time>
      </trkpt>
      <trkpt lat="49.25825" lon="-0.54711">
        <ele>45.599998474121</ele>
        <time>2018-02-04T08:29:38.000Z</time>
      </trkpt>
      <trkpt lat="49.25811" lon="-0.54693">
        <ele>46.200000762939</ele>
        <time>2018-02-04T08:29:53.000Z</time>
      </trkpt>
      <trkpt lat="49.25797" lon="-0.54675">
        <ele>46.599998474121</ele>
        <time>2018-02-04T08:30:07.000Z</time>
      </trkpt>
      <trkpt lat="49.25784" lon="-0.54657">
        <ele>46.799999237061</ele>
        <time>2018-02-04T08:30:21.000Z</time>
      </trkpt>
      <trkpt lat="49.25769" lon="-0.54639">
        <ele>47.799999237061</ele>
        <time>2018-02-04T08:30:35.000Z</time>
      </trkpt>
      <trkpt lat="49.25754" lon="-0.54621">
        <ele>49</ele>
        <time>2018-02-04T08:30:50.000Z</time>
      </trkpt>
      <trkpt lat="49.25741" lon="-0.54603">
        <ele>50.200000762939</ele>
        <time>2018-02-04T08:31:08.000Z</time>
      </trkpt>
      <trkpt lat="49.25728" lon="-0.54583">
        <ele>51</ele>
        <time>2018-02-04T08:31:26.000Z</time>
      </trkpt>
      <trkpt lat="49.25714" lon="-0.54564">
        <ele>52</ele>
        <time>2018-02-04T08:31:43.000Z</time>
      </trkpt>
      <trkpt lat="49.25699" lon="-0.54546">
        <ele>52.799999237061</ele>
        <time>2018-02-04T08:32:00.000Z</time>
      </trkpt>
      <trkpt lat="49.25684" lon="-0.54528">
        <ele>54.400001525879</ele>
        <time>2018-02-04T08:32:17.000Z</time>
      </trkpt>
      <trkpt lat="49.2567" lon="-0.5451">
        <ele>55.799999237061</ele>
        <time>2018-02-04T08:32:33.000Z</time>
      </trkpt>
      <trkpt lat="49.25656" lon="-0.54491">
        <ele>57.400001525879</ele>
        <time>2018-02-04T08:32:49.000Z</time>
      </trkpt>
      <trkpt lat="49.25642" lon="-0.54472">
        <ele>58.799999237061</ele>
        <time>2018-02-04T08:33:05.000Z</time>
      </trkpt>
      <trkpt lat="49.25627" lon="-0.54454">
        <ele>60.400001525879</ele>
        <time>2018-02-04T08:33:21.000Z</time>
      </trkpt>
      <trkpt lat="49.25612" lon="-0.54435">
        <ele>61</ele>
        <time>2018-02-04T08:33:37.000Z</time>
      </trkpt>
      <trkpt lat="49.25597" lon="-0.54419">
        <ele>61.400001525879</ele>
        <time>2018-02-04T08:33:53.000Z</time>
      </trkpt>
      <trkpt lat="49.25596" lon="-0.54417">
        <ele>61.400001525879</ele>
        <time>2018-02-04T08:33:55.000Z</time>
      </trkpt>
      <trkpt lat="49.25588" lon="-0.54407">
        <ele>61.599998474121</ele>
        <time>2018-02-04T08:34:04.000Z</time>
      </trkpt>
      <trkpt lat="49.25586" lon="-0.54402">
        <ele>61.599998474121</ele>
        <time>2018-02-04T08:34:08.000Z</time>
      </trkpt>
      <trkpt lat="49.2557" lon="-0.54384">
        <ele>61.599998474121</ele>
        <time>2018-02-04T08:34:23.000Z</time>
      </trkpt>
      <trkpt lat="49.25556" lon="-0.54364">
        <ele>61.400001525879</ele>
        <time>2018-02-04T08:34:36.000Z</time>
      </trkpt>
      <trkpt lat="49.25542" lon="-0.54346">
        <ele>62</ele>
        <time>2018-02-04T08:34:49.000Z</time>
      </trkpt>
      <trkpt lat="49.25528" lon="-0.54327">
        <ele>62.799999237061</ele>
        <time>2018-02-04T08:35:04.000Z</time>
      </trkpt>
      <trkpt lat="49.25515" lon="-0.54311">
        <ele>63.200000762939</ele>
        <time>2018-02-04T08:35:18.000Z</time>
      </trkpt>
      <trkpt lat="49.25512" lon="-0.54309">
        <ele>63</ele>
        <time>2018-02-04T08:35:29.000Z</time>
      </trkpt>
      <trkpt lat="49.25505" lon="-0.543">
        <ele>63</ele>
        <time>2018-02-04T08:35:35.000Z</time>
      </trkpt>
      <trkpt lat="49.25491" lon="-0.5428">
        <ele>63</ele>
        <time>2018-02-04T08:35:49.000Z</time>
      </trkpt>
      <trkpt lat="49.25476" lon="-0.54263">
        <ele>63</ele>
        <time>2018-02-04T08:36:02.000Z</time>
      </trkpt>
      <trkpt lat="49.25462" lon="-0.54245">
        <ele>63</ele>
        <time>2018-02-04T08:36:17.000Z</time>
      </trkpt>
      <trkpt lat="49.25448" lon="-0.54226">
        <ele>63</ele>
        <time>2018-02-04T08:36:31.000Z</time>
      </trkpt>
      <trkpt lat="49.25437" lon="-0.54212">
        <ele>62.799999237061</ele>
        <time>2018-02-04T08:36:42.000Z</time>
      </trkpt>
      <trkpt lat="49.25432" lon="-0.54209">
        <ele>62.799999237061</ele>
        <time>2018-02-04T08:36:47.000Z</time>
      </trkpt>
      <trkpt lat="49.25419" lon="-0.54189">
        <ele>62.599998474121</ele>
        <time>2018-02-04T08:37:01.000Z</time>
      </trkpt>
      <trkpt lat="49.25405" lon="-0.54172">
        <ele>62.599998474121</ele>
        <time>2018-02-04T08:37:15.000Z</time>
      </trkpt>
      <trkpt lat="49.2539" lon="-0.54154">
        <ele>62.400001525879</ele>
        <time>2018-02-04T08:37:29.000Z</time>
      </trkpt>
      <trkpt lat="49.25376" lon="-0.54135">
        <ele>62.200000762939</ele>
        <time>2018-02-04T08:37:43.000Z</time>
      </trkpt>
      <trkpt lat="49.25361" lon="-0.5412">
        <ele>62.200000762939</ele>
        <time>2018-02-04T08:37:57.000Z</time>
      </trkpt>
      <trkpt lat="49.25347" lon="-0.54102">
        <ele>62.400001525879</ele>
        <time>2018-02-04T08:38:11.000Z</time>
      </trkpt>
      <trkpt lat="49.25333" lon="-0.54083">
        <ele>62.599998474121</ele>
        <time>2018-02-04T08:38:26.000Z</time>
      </trkpt>
      <trkpt lat="49.25319" lon="-0.54064">
        <ele>62.400001525879</ele>
        <time>2018-02-04T08:38:40.000Z</time>
      </trkpt>
      <trkpt lat="49.25305" lon="-0.54044">
        <ele>62.200000762939</ele>
        <time>2018-02-04T08:38:54.000Z</time>
      </trkpt>
      <trkpt lat="49.25291" lon="-0.54026">
        <ele>61.599998474121</ele>
        <time>2018-02-04T08:39:08.000Z</time>
      </trkpt>
      <trkpt lat="49.25276" lon="-0.54009">
        <ele>60.799999237061</ele>
        <time>2018-02-04T08:39:22.000Z</time>
      </trkpt>
      <trkpt lat="49.25262" lon="-0.53992">
        <ele>60</ele>
        <time>2018-02-04T08:39:36.000Z</time>
      </trkpt>
      <trkpt lat="49.25248" lon="-0.53973">
        <ele>59.400001525879</ele>
        <time>2018-02-04T08:39:51.000Z</time>
      </trkpt>
      <trkpt lat="49.25234" lon="-0.53954">
        <ele>58.799999237061</ele>
        <time>2018-02-04T08:40:06.000Z</time>
      </trkpt>
      <trkpt lat="49.25219" lon="-0.53935">
        <ele>58.200000762939</ele>
        <time>2018-02-04T08:40:21.000Z</time>
      </trkpt>
      <trkpt lat="49.25205" lon="-0.53917">
        <ele>57.599998474121</ele>
        <time>2018-02-04T08:40:35.000Z</time>
      </trkpt>
      <trkpt lat="49.25192" lon="-0.53899">
        <ele>57.200000762939</ele>
        <time>2018-02-04T08:40:50.000Z</time>
      </trkpt>
      <trkpt lat="49.25184" lon="-0.53885">
        <ele>57.200000762939</ele>
        <time>2018-02-04T08:41:04.000Z</time>
      </trkpt>
      <trkpt lat="49.25181" lon="-0.53885">
        <ele>57.200000762939</ele>
        <time>2018-02-04T08:42:14.000Z</time>
      </trkpt>
      <trkpt lat="49.25175" lon="-0.5389">
        <ele>57.200000762939</ele>
        <time>2018-02-04T08:42:27.000Z</time>
      </trkpt>
      <trkpt lat="49.25181" lon="-0.53892">
        <ele>57.200000762939</ele>
        <time>2018-02-04T08:42:50.000Z</time>
      </trkpt>
      <trkpt lat="49.25179" lon="-0.53887">
        <ele>57.200000762939</ele>
        <time>2018-02-04T08:43:04.000Z</time>
      </trkpt>
      <trkpt lat="49.25176" lon="-0.53871">
        <ele>57</ele>
        <time>2018-02-04T08:43:17.000Z</time>
      </trkpt>
      <trkpt lat="49.25173" lon="-0.53843">
        <ele>56.799999237061</ele>
        <time>2018-02-04T08:43:33.000Z</time>
      </trkpt>
      <trkpt lat="49.25173" lon="-0.53841">
        <ele>56.799999237061</ele>
        <time>2018-02-04T08:43:34.000Z</time>
      </trkpt>
      <trkpt lat="49.2517" lon="-0.53812">
        <ele>56.200000762939</ele>
        <time>2018-02-04T08:43:49.000Z</time>
      </trkpt>
      <trkpt lat="49.25167" lon="-0.53783">
        <ele>56</ele>
        <time>2018-02-04T08:44:04.000Z</time>
      </trkpt>
      <trkpt lat="49.25165" lon="-0.53754">
        <ele>56</ele>
        <time>2018-02-04T08:44:19.000Z</time>
      </trkpt>
      <trkpt lat="49.25168" lon="-0.53726">
        <ele>55.599998474121</ele>
        <time>2018-02-04T08:44:35.000Z</time>
      </trkpt>
      <trkpt lat="49.25176" lon="-0.537">
        <ele>55</ele>
        <time>2018-02-04T08:44:49.000Z</time>
      </trkpt>
      <trkpt lat="49.25177" lon="-0.53694">
        <ele>55</ele>
        <time>2018-02-04T08:44:52.000Z</time>
      </trkpt>
      <trkpt lat="49.25184" lon="-0.53679">
        <ele>54.799999237061</ele>
        <time>2018-02-04T08:45:03.000Z</time>
      </trkpt>
      <trkpt lat="49.25187" lon="-0.53673">
        <ele>54.799999237061</ele>
        <time>2018-02-04T08:45:07.000Z</time>
      </trkpt>
      <trkpt lat="49.25195" lon="-0.53663">
        <ele>54.599998474121</ele>
        <time>2018-02-04T08:45:15.000Z</time>
      </trkpt>
      <trkpt lat="49.25197" lon="-0.53657">
        <ele>54.599998474121</ele>
        <time>2018-02-04T08:45:19.000Z</time>
      </trkpt>
      <trkpt lat="49.25204" lon="-0.53642">
        <ele>54.400001525879</ele>
        <time>2018-02-04T08:45:29.000Z</time>
      </trkpt>
      <trkpt lat="49.2521" lon="-0.53625">
        <ele>54.200000762939</ele>
        <time>2018-02-04T08:45:40.000Z</time>
      </trkpt>
      <trkpt lat="49.25213" lon="-0.53619">
        <ele>54</ele>
        <time>2018-02-04T08:45:44.000Z</time>
      </trkpt>
      <trkpt lat="49.25216" lon="-0.53599">
        <ele>53.400001525879</ele>
        <time>2018-02-04T08:46:37.000Z</time>
      </trkpt>
      <trkpt lat="49.25206" lon="-0.53576">
        <ele>51.799999237061</ele>
        <time>2018-02-04T08:46:56.000Z</time>
      </trkpt>
      <trkpt lat="49.25206" lon="-0.53575">
        <ele>51.599998474121</ele>
        <time>2018-02-04T08:46:57.000Z</time>
      </trkpt>
      <trkpt lat="49.25194" lon="-0.53552">
        <ele>50</ele>
        <time>2018-02-04T08:47:21.000Z</time>
      </trkpt>
      <trkpt lat="49.25183" lon="-0.53528">
        <ele>48.400001525879</ele>
        <time>2018-02-04T08:47:37.000Z</time>
      </trkpt>
      <trkpt lat="49.25178" lon="-0.53514">
        <ele>47.599998474121</ele>
        <time>2018-02-04T08:47:57.000Z</time>
      </trkpt>
      <trkpt lat="49.25172" lon="-0.53498">
        <ele>46.599998474121</ele>
        <time>2018-02-04T08:48:18.000Z</time>
      </trkpt>
      <trkpt lat="49.25161" lon="-0.53475">
        <ele>45.400001525879</ele>
        <time>2018-02-04T08:48:33.000Z</time>
      </trkpt>
      <trkpt lat="49.2515" lon="-0.53452">
        <ele>44.400001525879</ele>
        <time>2018-02-04T08:48:52.000Z</time>
      </trkpt>
      <trkpt lat="49.25146" lon="-0.53444">
        <ele>44</ele>
        <time>2018-02-04T08:48:57.000Z</time>
      </trkpt>
      <trkpt lat="49.25135" lon="-0.53423">
        <ele>43</ele>
        <time>2018-02-04T08:49:31.000Z</time>
      </trkpt>
      <trkpt lat="49.25132" lon="-0.53417">
        <ele>42.599998474121</ele>
        <time>2018-02-04T08:49:35.000Z</time>
      </trkpt>
      <trkpt lat="49.25131" lon="-0.53414">
        <ele>42.599998474121</ele>
        <time>2018-02-04T08:49:38.000Z</time>
      </trkpt>
      <trkpt lat="49.25118" lon="-0.53393">
        <ele>41.400001525879</ele>
        <time>2018-02-04T08:49:55.000Z</time>
      </trkpt>
      <trkpt lat="49.25104" lon="-0.53375">
        <ele>40.400001525879</ele>
        <time>2018-02-04T08:50:09.000Z</time>
      </trkpt>
      <trkpt lat="49.25089" lon="-0.53358">
        <ele>39.200000762939</ele>
        <time>2018-02-04T08:50:25.000Z</time>
      </trkpt>
      <trkpt lat="49.25076" lon="-0.53339">
        <ele>38</ele>
        <time>2018-02-04T08:50:36.000Z</time>
      </trkpt>
      <trkpt lat="49.25062" lon="-0.5332">
        <ele>37.400001525879</ele>
        <time>2018-02-04T08:50:51.000Z</time>
      </trkpt>
      <trkpt lat="49.25048" lon="-0.53301">
        <ele>37</ele>
        <time>2018-02-04T08:51:06.000Z</time>
      </trkpt>
      <trkpt lat="49.25031" lon="-0.533">
        <ele>37</ele>
        <time>2018-02-04T08:51:22.000Z</time>
      </trkpt>
      <trkpt lat="49.25012" lon="-0.53302">
        <ele>36.799999237061</ele>
        <time>2018-02-04T08:51:38.000Z</time>
      </trkpt>
      <trkpt lat="49.25001" lon="-0.53305">
        <ele>36.799999237061</ele>
        <time>2018-02-04T08:51:47.000Z</time>
      </trkpt>
      <trkpt lat="49.24997" lon="-0.53298">
        <ele>36.400001525879</ele>
        <time>2018-02-04T08:51:53.000Z</time>
      </trkpt>
      <trkpt lat="49.24986" lon="-0.53276">
        <ele>35.400001525879</ele>
        <time>2018-02-04T08:52:07.000Z</time>
      </trkpt>
      <trkpt lat="49.24981" lon="-0.53256">
        <ele>34.200000762939</ele>
        <time>2018-02-04T08:52:19.000Z</time>
      </trkpt>
      <trkpt lat="49.24981" lon="-0.53239">
        <ele>33.400001525879</ele>
        <time>2018-02-04T08:52:31.000Z</time>
      </trkpt>
      <trkpt lat="49.2498" lon="-0.53231">
        <ele>33</ele>
        <time>2018-02-04T08:52:36.000Z</time>
      </trkpt>
      <trkpt lat="49.24981" lon="-0.53227">
        <ele>33</ele>
        <time>2018-02-04T08:53:20.000Z</time>
      </trkpt>
      <trkpt lat="49.24995" lon="-0.5321">
        <ele>32.400001525879</ele>
        <time>2018-02-04T08:53:35.000Z</time>
      </trkpt>
      <trkpt lat="49.24996" lon="-0.53207">
        <ele>32.200000762939</ele>
        <time>2018-02-04T08:53:37.000Z</time>
      </trkpt>
      <trkpt lat="49.25003" lon="-0.53184">
        <ele>31.39999961853</ele>
        <time>2018-02-04T08:53:51.000Z</time>
      </trkpt>
      <trkpt lat="49.25008" lon="-0.53156">
        <ele>30.60000038147</ele>
        <time>2018-02-04T08:54:06.000Z</time>
      </trkpt>
      <trkpt lat="49.25015" lon="-0.53129">
        <ele>30</ele>
        <time>2018-02-04T08:54:21.000Z</time>
      </trkpt>
      <trkpt lat="49.2502" lon="-0.53103">
        <ele>29.60000038147</ele>
        <time>2018-02-04T08:54:35.000Z</time>
      </trkpt>
      <trkpt lat="49.25027" lon="-0.53076">
        <ele>29.39999961853</ele>
        <time>2018-02-04T08:54:50.000Z</time>
      </trkpt>
      <trkpt lat="49.2503" lon="-0.53048">
        <ele>29</ele>
        <time>2018-02-04T08:55:04.000Z</time>
      </trkpt>
      <trkpt lat="49.25031" lon="-0.53019">
        <ele>29</ele>
        <time>2018-02-04T08:55:18.000Z</time>
      </trkpt>
      <trkpt lat="49.25036" lon="-0.52993">
        <ele>29</ele>
        <time>2018-02-04T08:55:32.000Z</time>
      </trkpt>
      <trkpt lat="49.25041" lon="-0.52984">
        <ele>29</ele>
        <time>2018-02-04T08:55:37.000Z</time>
      </trkpt>
      <trkpt lat="49.25053" lon="-0.52964">
        <ele>29</ele>
        <time>2018-02-04T08:55:51.000Z</time>
      </trkpt>
      <trkpt lat="49.25065" lon="-0.52943">
        <ele>29</ele>
        <time>2018-02-04T08:56:05.000Z</time>
      </trkpt>
      <trkpt lat="49.25071" lon="-0.52923">
        <ele>29</ele>
        <time>2018-02-04T08:56:17.000Z</time>
      </trkpt>
      <trkpt lat="49.25078" lon="-0.52896">
        <ele>28.799999237061</ele>
        <time>2018-02-04T08:56:32.000Z</time>
      </trkpt>
      <trkpt lat="49.25083" lon="-0.52879">
        <ele>28.60000038147</ele>
        <time>2018-02-04T08:56:42.000Z</time>
      </trkpt>
      <trkpt lat="49.25075" lon="-0.52868">
        <ele>28.200000762939</ele>
        <time>2018-02-04T08:56:52.000Z</time>
      </trkpt>
      <trkpt lat="49.2506" lon="-0.52851">
        <ele>27.60000038147</ele>
        <time>2018-02-04T08:57:07.000Z</time>
      </trkpt>
      <trkpt lat="49.25045" lon="-0.52834">
        <ele>27.799999237061</ele>
        <time>2018-02-04T08:57:22.000Z</time>
      </trkpt>
      <trkpt lat="49.2503" lon="-0.52816">
        <ele>28</ele>
        <time>2018-02-04T08:57:36.000Z</time>
      </trkpt>
      <trkpt lat="49.25021" lon="-0.52793">
        <ele>28</ele>
        <time>2018-02-04T08:57:51.000Z</time>
      </trkpt>
      <trkpt lat="49.25011" lon="-0.52769">
        <ele>28</ele>
        <time>2018-02-04T08:58:05.000Z</time>
      </trkpt>
      <trkpt lat="49.2501" lon="-0.52766">
        <ele>28</ele>
        <time>2018-02-04T08:58:07.000Z</time>
      </trkpt>
      <trkpt lat="49.24999" lon="-0.52741">
        <ele>28</ele>
        <time>2018-02-04T08:58:23.000Z</time>
      </trkpt>
      <trkpt lat="49.24993" lon="-0.52733">
        <ele>28.200000762939</ele>
        <time>2018-02-04T08:58:29.000Z</time>
      </trkpt>
      <trkpt lat="49.24979" lon="-0.52714">
        <ele>28.60000038147</ele>
        <time>2018-02-04T08:58:43.000Z</time>
      </trkpt>
      <trkpt lat="49.24979" lon="-0.52713">
        <ele>28.60000038147</ele>
        <time>2018-02-04T08:58:44.000Z</time>
      </trkpt>
      <trkpt lat="49.24974" lon="-0.52708">
        <ele>28.60000038147</ele>
        <time>2018-02-04T08:58:51.000Z</time>
      </trkpt>
      <trkpt lat="49.2496" lon="-0.52687">
        <ele>29.200000762939</ele>
        <time>2018-02-04T08:59:04.000Z</time>
      </trkpt>
      <trkpt lat="49.24948" lon="-0.52667">
        <ele>30.200000762939</ele>
        <time>2018-02-04T08:59:17.000Z</time>
      </trkpt>
      <trkpt lat="49.24934" lon="-0.52647">
        <ele>31</ele>
        <time>2018-02-04T08:59:32.000Z</time>
      </trkpt>
      <trkpt lat="49.24922" lon="-0.52627">
        <ele>31.39999961853</ele>
        <time>2018-02-04T08:59:46.000Z</time>
      </trkpt>
      <trkpt lat="49.24908" lon="-0.52606">
        <ele>31.60000038147</ele>
        <time>2018-02-04T09:00:01.000Z</time>
      </trkpt>
      <trkpt lat="49.24895" lon="-0.52585">
        <ele>31.60000038147</ele>
        <time>2018-02-04T09:00:16.000Z</time>
      </trkpt>
      <trkpt lat="49.24882" lon="-0.52565">
        <ele>31.799999237061</ele>
        <time>2018-02-04T09:00:30.000Z</time>
      </trkpt>
      <trkpt lat="49.24869" lon="-0.52547">
        <ele>31.799999237061</ele>
        <time>2018-02-04T09:00:45.000Z</time>
      </trkpt>
      <trkpt lat="49.24855" lon="-0.52527">
        <ele>31.799999237061</ele>
        <time>2018-02-04T09:00:59.000Z</time>
      </trkpt>
      <trkpt lat="49.24842" lon="-0.52506">
        <ele>31.39999961853</ele>
        <time>2018-02-04T09:01:14.000Z</time>
      </trkpt>
      <trkpt lat="49.24828" lon="-0.52488">
        <ele>31.200000762939</ele>
        <time>2018-02-04T09:01:28.000Z</time>
      </trkpt>
      <trkpt lat="49.24815" lon="-0.52467">
        <ele>31</ele>
        <time>2018-02-04T09:01:43.000Z</time>
      </trkpt>
      <trkpt lat="49.24802" lon="-0.52448">
        <ele>30.60000038147</ele>
        <time>2018-02-04T09:01:57.000Z</time>
      </trkpt>
      <trkpt lat="49.24788" lon="-0.5243">
        <ele>30.200000762939</ele>
        <time>2018-02-04T09:02:11.000Z</time>
      </trkpt>
      <trkpt lat="49.24774" lon="-0.52413">
        <ele>30</ele>
        <time>2018-02-04T09:02:25.000Z</time>
      </trkpt>
      <trkpt lat="49.24757" lon="-0.52398">
        <ele>30.200000762939</ele>
        <time>2018-02-04T09:02:40.000Z</time>
      </trkpt>
      <trkpt lat="49.24741" lon="-0.52385">
        <ele>30.39999961853</ele>
        <time>2018-02-04T09:02:54.000Z</time>
      </trkpt>
      <trkpt lat="49.24725" lon="-0.5237">
        <ele>30.799999237061</ele>
        <time>2018-02-04T09:03:09.000Z</time>
      </trkpt>
      <trkpt lat="49.24724" lon="-0.52369">
        <ele>30.799999237061</ele>
        <time>2018-02-04T09:03:11.000Z</time>
      </trkpt>
      <trkpt lat="49.24721" lon="-0.52373">
        <ele>31</ele>
        <time>2018-02-04T09:03:15.000Z</time>
      </trkpt>
      <trkpt lat="49.2472" lon="-0.52376">
        <ele>31</ele>
        <time>2018-02-04T09:03:18.000Z</time>
      </trkpt>
      <trkpt lat="49.24709" lon="-0.52399">
        <ele>31.799999237061</ele>
        <time>2018-02-04T09:03:37.000Z</time>
      </trkpt>
      <trkpt lat="49.24698" lon="-0.52422">
        <ele>32.799999237061</ele>
        <time>2018-02-04T09:03:54.000Z</time>
      </trkpt>
      <trkpt lat="49.24687" lon="-0.52443">
        <ele>33.799999237061</ele>
        <time>2018-02-04T09:04:11.000Z</time>
      </trkpt>
      <trkpt lat="49.24683" lon="-0.52471">
        <ele>34.599998474121</ele>
        <time>2018-02-04T09:04:37.000Z</time>
      </trkpt>
      <trkpt lat="49.24682" lon="-0.52482">
        <ele>34.799999237061</ele>
        <time>2018-02-04T09:04:48.000Z</time>
      </trkpt>
      <trkpt lat="49.2468" lon="-0.5251">
        <ele>35.400001525879</ele>
        <time>2018-02-04T09:05:09.000Z</time>
      </trkpt>
      <trkpt lat="49.24675" lon="-0.52537">
        <ele>36.200000762939</ele>
        <time>2018-02-04T09:05:25.000Z</time>
      </trkpt>
      <trkpt lat="49.24672" lon="-0.52564">
        <ele>37.200000762939</ele>
        <time>2018-02-04T09:05:44.000Z</time>
      </trkpt>
      <trkpt lat="49.24671" lon="-0.52573">
        <ele>37.599998474121</ele>
        <time>2018-02-04T09:05:50.000Z</time>
      </trkpt>
      <trkpt lat="49.2467" lon="-0.52583">
        <ele>38</ele>
        <time>2018-02-04T09:05:58.000Z</time>
      </trkpt>
      <trkpt lat="49.24665" lon="-0.52609">
        <ele>38.799999237061</ele>
        <time>2018-02-04T09:06:20.000Z</time>
      </trkpt>
      <trkpt lat="49.2466" lon="-0.52636">
        <ele>39.799999237061</ele>
        <time>2018-02-04T09:06:40.000Z</time>
      </trkpt>
      <trkpt lat="49.24661" lon="-0.52662">
        <ele>40.400001525879</ele>
        <time>2018-02-04T09:07:00.000Z</time>
      </trkpt>
      <trkpt lat="49.24669" lon="-0.52687">
        <ele>40.599998474121</ele>
        <time>2018-02-04T09:07:19.000Z</time>
      </trkpt>
      <trkpt lat="49.24681" lon="-0.5271">
        <ele>40.599998474121</ele>
        <time>2018-02-04T09:07:36.000Z</time>
      </trkpt>
      <trkpt lat="49.24687" lon="-0.52737">
        <ele>40.599998474121</ele>
        <time>2018-02-04T09:07:52.000Z</time>
      </trkpt>
      <trkpt lat="49.24679" lon="-0.52762">
        <ele>41.400001525879</ele>
        <time>2018-02-04T09:08:11.000Z</time>
      </trkpt>
      <trkpt lat="49.24669" lon="-0.52785">
        <ele>42.200000762939</ele>
        <time>2018-02-04T09:08:27.000Z</time>
      </trkpt>
      <trkpt lat="49.24658" lon="-0.52809">
        <ele>43</ele>
        <time>2018-02-04T09:08:43.000Z</time>
      </trkpt>
      <trkpt lat="49.24655" lon="-0.52818">
        <ele>43.200000762939</ele>
        <time>2018-02-04T09:08:49.000Z</time>
      </trkpt>
      <trkpt lat="49.24643" lon="-0.5284">
        <ele>44</ele>
        <time>2018-02-04T09:09:05.000Z</time>
      </trkpt>
      <trkpt lat="49.24633" lon="-0.52865">
        <ele>44.799999237061</ele>
        <time>2018-02-04T09:09:19.000Z</time>
      </trkpt>
      <trkpt lat="49.2463" lon="-0.52873">
        <ele>45</ele>
        <time>2018-02-04T09:09:24.000Z</time>
      </trkpt>
      <trkpt lat="49.24619" lon="-0.52895">
        <ele>45.799999237061</ele>
        <time>2018-02-04T09:09:41.000Z</time>
      </trkpt>
      <trkpt lat="49.24609" lon="-0.52918">
        <ele>46.400001525879</ele>
        <time>2018-02-04T09:09:55.000Z</time>
      </trkpt>
      <trkpt lat="49.246" lon="-0.52944">
        <ele>47</ele>
        <time>2018-02-04T09:10:09.000Z</time>
      </trkpt>
      <trkpt lat="49.2459" lon="-0.52966">
        <ele>47.599998474121</ele>
        <time>2018-02-04T09:10:23.000Z</time>
      </trkpt>
      <trkpt lat="49.24584" lon="-0.52983">
        <ele>47.799999237061</ele>
        <time>2018-02-04T09:10:35.000Z</time>
      </trkpt>
      <trkpt lat="49.24583" lon="-0.52989">
        <ele>48</ele>
        <time>2018-02-04T09:10:39.000Z</time>
      </trkpt>
      <trkpt lat="49.24576" lon="-0.53008">
        <ele>48.200000762939</ele>
        <time>2018-02-04T09:10:51.000Z</time>
      </trkpt>
      <trkpt lat="49.24573" lon="-0.53016">
        <ele>48.400001525879</ele>
        <time>2018-02-04T09:10:57.000Z</time>
      </trkpt>
      <trkpt lat="49.24566" lon="-0.53037">
        <ele>48.400001525879</ele>
        <time>2018-02-04T09:11:10.000Z</time>
      </trkpt>
      <trkpt lat="49.24566" lon="-0.53042">
        <ele>48.400001525879</ele>
        <time>2018-02-04T09:11:14.000Z</time>
      </trkpt>
      <trkpt lat="49.24574" lon="-0.53046">
        <ele>47.799999237061</ele>
        <time>2018-02-04T09:11:21.000Z</time>
      </trkpt>
      <trkpt lat="49.24566" lon="-0.53051">
        <ele>48.200000762939</ele>
        <time>2018-02-04T09:12:22.000Z</time>
      </trkpt>
      <trkpt lat="49.24562" lon="-0.53051">
        <ele>48.400001525879</ele>
        <time>2018-02-04T09:12:25.000Z</time>
      </trkpt>
      <trkpt lat="49.24552" lon="-0.53069">
        <ele>48.599998474121</ele>
        <time>2018-02-04T09:13:30.000Z</time>
      </trkpt>
      <trkpt lat="49.2454" lon="-0.5309">
        <ele>49</ele>
        <time>2018-02-04T09:13:49.000Z</time>
      </trkpt>
      <trkpt lat="49.24529" lon="-0.53113">
        <ele>49.200000762939</ele>
        <time>2018-02-04T09:14:05.000Z</time>
      </trkpt>
      <trkpt lat="49.24521" lon="-0.53127">
        <ele>49.200000762939</ele>
        <time>2018-02-04T09:14:15.000Z</time>
      </trkpt>
      <trkpt lat="49.24512" lon="-0.53143">
        <ele>49.599998474121</ele>
        <time>2018-02-04T09:14:27.000Z</time>
      </trkpt>
      <trkpt lat="49.24509" lon="-0.53149">
        <ele>49.799999237061</ele>
        <time>2018-02-04T09:14:32.000Z</time>
      </trkpt>
      <trkpt lat="49.24501" lon="-0.53166">
        <ele>50.200000762939</ele>
        <time>2018-02-04T09:14:46.000Z</time>
      </trkpt>
      <trkpt lat="49.24497" lon="-0.53174">
        <ele>50.400001525879</ele>
        <time>2018-02-04T09:14:52.000Z</time>
      </trkpt>
      <trkpt lat="49.24486" lon="-0.53196">
        <ele>50.599998474121</ele>
        <time>2018-02-04T09:15:09.000Z</time>
      </trkpt>
      <trkpt lat="49.24476" lon="-0.53211">
        <ele>51</ele>
        <time>2018-02-04T09:15:20.000Z</time>
      </trkpt>
      <trkpt lat="49.24473" lon="-0.53217">
        <ele>51</ele>
        <time>2018-02-04T09:15:24.000Z</time>
      </trkpt>
      <trkpt lat="49.2446" lon="-0.53236">
        <ele>51.599998474121</ele>
        <time>2018-02-04T09:15:42.000Z</time>
      </trkpt>
      <trkpt lat="49.24449" lon="-0.53258">
        <ele>51.799999237061</ele>
        <time>2018-02-04T09:15:58.000Z</time>
      </trkpt>
      <trkpt lat="49.24441" lon="-0.5327">
        <ele>51.799999237061</ele>
        <time>2018-02-04T09:16:08.000Z</time>
      </trkpt>
      <trkpt lat="49.24429" lon="-0.53268">
        <ele>52.200000762939</ele>
        <time>2018-02-04T09:16:20.000Z</time>
      </trkpt>
      <trkpt lat="49.24424" lon="-0.5326">
        <ele>52.400001525879</ele>
        <time>2018-02-04T09:16:27.000Z</time>
      </trkpt>
      <trkpt lat="49.24419" lon="-0.53252">
        <ele>52.799999237061</ele>
        <time>2018-02-04T09:16:33.000Z</time>
      </trkpt>
      <trkpt lat="49.2441" lon="-0.53237">
        <ele>53.599998474121</ele>
        <time>2018-02-04T09:16:45.000Z</time>
      </trkpt>
      <trkpt lat="49.24406" lon="-0.53232">
        <ele>54</ele>
        <time>2018-02-04T09:16:50.000Z</time>
      </trkpt>
      <trkpt lat="49.24391" lon="-0.53215">
        <ele>55</ele>
        <time>2018-02-04T09:17:06.000Z</time>
      </trkpt>
      <trkpt lat="49.24378" lon="-0.53203">
        <ele>55</ele>
        <time>2018-02-04T09:17:18.000Z</time>
      </trkpt>
      <trkpt lat="49.24363" lon="-0.53187">
        <ele>55.599998474121</ele>
        <time>2018-02-04T09:17:33.000Z</time>
      </trkpt>
      <trkpt lat="49.24347" lon="-0.53173">
        <ele>55.200000762939</ele>
        <time>2018-02-04T09:17:49.000Z</time>
      </trkpt>
      <trkpt lat="49.24331" lon="-0.53158">
        <ele>55</ele>
        <time>2018-02-04T09:18:03.000Z</time>
      </trkpt>
      <trkpt lat="49.24324" lon="-0.5315">
        <ele>54.799999237061</ele>
        <time>2018-02-04T09:18:10.000Z</time>
      </trkpt>
      <trkpt lat="49.24319" lon="-0.53146">
        <ele>54.599998474121</ele>
        <time>2018-02-04T09:18:15.000Z</time>
      </trkpt>
      <trkpt lat="49.24302" lon="-0.53134">
        <ele>54.200000762939</ele>
        <time>2018-02-04T09:18:30.000Z</time>
      </trkpt>
      <trkpt lat="49.24285" lon="-0.5312">
        <ele>53.599998474121</ele>
        <time>2018-02-04T09:18:45.000Z</time>
      </trkpt>
      <trkpt lat="49.24268" lon="-0.5311">
        <ele>53.200000762939</ele>
        <time>2018-02-04T09:19:00.000Z</time>
      </trkpt>
      <trkpt lat="49.24264" lon="-0.53107">
        <ele>53.200000762939</ele>
        <time>2018-02-04T09:19:04.000Z</time>
      </trkpt>
      <trkpt lat="49.24247" lon="-0.5311">
        <ele>53</ele>
        <time>2018-02-04T09:19:20.000Z</time>
      </trkpt>
      <trkpt lat="49.24246" lon="-0.53113">
        <ele>53.200000762939</ele>
        <time>2018-02-04T09:19:22.000Z</time>
      </trkpt>
      <trkpt lat="49.24244" lon="-0.53117">
        <ele>53.200000762939</ele>
        <time>2018-02-04T09:19:24.000Z</time>
      </trkpt>
      <trkpt lat="49.24235" lon="-0.53141">
        <ele>53.599998474121</ele>
        <time>2018-02-04T09:19:39.000Z</time>
      </trkpt>
      <trkpt lat="49.24225" lon="-0.53165">
        <ele>53.799999237061</ele>
        <time>2018-02-04T09:19:54.000Z</time>
      </trkpt>
      <trkpt lat="49.24215" lon="-0.53188">
        <ele>53.799999237061</ele>
        <time>2018-02-04T09:20:09.000Z</time>
      </trkpt>
      <trkpt lat="49.24214" lon="-0.53191">
        <ele>54</ele>
        <time>2018-02-04T09:20:11.000Z</time>
      </trkpt>
      <trkpt lat="49.24211" lon="-0.53202">
        <ele>54</ele>
        <time>2018-02-04T09:20:18.000Z</time>
      </trkpt>
      <trkpt lat="49.24205" lon="-0.53203">
        <ele>54</ele>
        <time>2018-02-04T09:20:23.000Z</time>
      </trkpt>
      <trkpt lat="49.2419" lon="-0.53191">
        <ele>53.599998474121</ele>
        <time>2018-02-04T09:20:39.000Z</time>
      </trkpt>
      <trkpt lat="49.24177" lon="-0.53171">
        <ele>53.200000762939</ele>
        <time>2018-02-04T09:20:56.000Z</time>
      </trkpt>
      <trkpt lat="49.24164" lon="-0.53151">
        <ele>52.599998474121</ele>
        <time>2018-02-04T09:21:12.000Z</time>
      </trkpt>
      <trkpt lat="49.2415" lon="-0.5313">
        <ele>51.799999237061</ele>
        <time>2018-02-04T09:21:28.000Z</time>
      </trkpt>
      <trkpt lat="49.24136" lon="-0.5311">
        <ele>51</ele>
        <time>2018-02-04T09:21:43.000Z</time>
      </trkpt>
      <trkpt lat="49.24123" lon="-0.53091">
        <ele>49.799999237061</ele>
        <time>2018-02-04T09:21:58.000Z</time>
      </trkpt>
      <trkpt lat="49.24111" lon="-0.53078">
        <ele>49</ele>
        <time>2018-02-04T09:22:10.000Z</time>
      </trkpt>
      <trkpt lat="49.24098" lon="-0.53072">
        <ele>48</ele>
        <time>2018-02-04T09:22:23.000Z</time>
      </trkpt>
      <trkpt lat="49.24081" lon="-0.53062">
        <ele>46.200000762939</ele>
        <time>2018-02-04T09:22:40.000Z</time>
      </trkpt>
      <trkpt lat="49.24065" lon="-0.53048">
        <ele>44.599998474121</ele>
        <time>2018-02-04T09:22:55.000Z</time>
      </trkpt>
      <trkpt lat="49.24048" lon="-0.53034">
        <ele>42.799999237061</ele>
        <time>2018-02-04T09:23:10.000Z</time>
      </trkpt>
      <trkpt lat="49.24032" lon="-0.53022">
        <ele>41.200000762939</ele>
        <time>2018-02-04T09:23:26.000Z</time>
      </trkpt>
      <trkpt lat="49.24031" lon="-0.53021">
        <ele>41</ele>
        <time>2018-02-04T09:23:27.000Z</time>
      </trkpt>
      <trkpt lat="49.24015" lon="-0.53008">
        <ele>39.799999237061</ele>
        <time>2018-02-04T09:23:42.000Z</time>
      </trkpt>
      <trkpt lat="49.24008" lon="-0.53004">
        <ele>39.400001525879</ele>
        <time>2018-02-04T09:23:48.000Z</time>
      </trkpt>
      <trkpt lat="49.23992" lon="-0.52988">
        <ele>37.799999237061</ele>
        <time>2018-02-04T09:24:03.000Z</time>
      </trkpt>
      <trkpt lat="49.23976" lon="-0.52974">
        <ele>36.200000762939</ele>
        <time>2018-02-04T09:24:18.000Z</time>
      </trkpt>
      <trkpt lat="49.23975" lon="-0.52972">
        <ele>36</ele>
        <time>2018-02-04T09:24:19.000Z</time>
      </trkpt>
      <trkpt lat="49.23968" lon="-0.52967">
        <ele>35.400001525879</ele>
        <time>2018-02-04T09:24:26.000Z</time>
      </trkpt>
      <trkpt lat="49.23952" lon="-0.52954">
        <ele>33.799999237061</ele>
        <time>2018-02-04T09:24:42.000Z</time>
      </trkpt>
      <trkpt lat="49.23935" lon="-0.52941">
        <ele>32.599998474121</ele>
        <time>2018-02-04T09:24:57.000Z</time>
      </trkpt>
      <trkpt lat="49.23932" lon="-0.5294">
        <ele>32.599998474121</ele>
        <time>2018-02-04T09:24:59.000Z</time>
      </trkpt>
      <trkpt lat="49.23923" lon="-0.52933">
        <ele>32</ele>
        <time>2018-02-04T09:25:08.000Z</time>
      </trkpt>
      <trkpt lat="49.23907" lon="-0.5292">
        <ele>31</ele>
        <time>2018-02-04T09:25:22.000Z</time>
      </trkpt>
      <trkpt lat="49.239" lon="-0.52911">
        <ele>31</ele>
        <time>2018-02-04T09:25:29.000Z</time>
      </trkpt>
      <trkpt lat="49.23883" lon="-0.52899">
        <ele>31</ele>
        <time>2018-02-04T09:25:44.000Z</time>
      </trkpt>
      <trkpt lat="49.23881" lon="-0.52897">
        <ele>31</ele>
        <time>2018-02-04T09:25:46.000Z</time>
      </trkpt>
      <trkpt lat="49.23863" lon="-0.52891">
        <ele>31</ele>
        <time>2018-02-04T09:26:03.000Z</time>
      </trkpt>
      <trkpt lat="49.23862" lon="-0.52891">
        <ele>31</ele>
        <time>2018-02-04T09:26:04.000Z</time>
      </trkpt>
      <trkpt lat="49.23858" lon="-0.52887">
        <ele>31</ele>
        <time>2018-02-04T09:26:08.000Z</time>
      </trkpt>
      <trkpt lat="49.2385" lon="-0.52881">
        <ele>31</ele>
        <time>2018-02-04T09:26:16.000Z</time>
      </trkpt>
      <trkpt lat="49.23835" lon="-0.52864">
        <ele>31.39999961853</ele>
        <time>2018-02-04T09:26:34.000Z</time>
      </trkpt>
      <trkpt lat="49.23827" lon="-0.52853">
        <ele>31.799999237061</ele>
        <time>2018-02-04T09:27:03.000Z</time>
      </trkpt>
      <trkpt lat="49.23827" lon="-0.52859">
        <ele>31.60000038147</ele>
        <time>2018-02-04T09:27:07.000Z</time>
      </trkpt>
      <trkpt lat="49.23827" lon="-0.52853">
        <ele>31.799999237061</ele>
        <time>2018-02-04T09:27:35.000Z</time>
      </trkpt>
      <trkpt lat="49.23826" lon="-0.52857">
        <ele>31.60000038147</ele>
        <time>2018-02-04T09:29:32.000Z</time>
      </trkpt>
      <trkpt lat="49.23826" lon="-0.52851">
        <ele>31.799999237061</ele>
        <time>2018-02-04T09:31:47.000Z</time>
      </trkpt>
      <trkpt lat="49.23826" lon="-0.52852">
        <ele>31.799999237061</ele>
        <time>2018-02-04T09:32:29.000Z</time>
      </trkpt>
      <trkpt lat="49.23813" lon="-0.52842">
        <ele>32</ele>
        <time>2018-02-04T09:32:49.000Z</time>
      </trkpt>
      <trkpt lat="49.23812" lon="-0.52843">
        <ele>32</ele>
        <time>2018-02-04T09:32:50.000Z</time>
      </trkpt>
      <trkpt lat="49.2381" lon="-0.52846">
        <ele>31.799999237061</ele>
        <time>2018-02-04T09:33:17.000Z</time>
      </trkpt>
      <trkpt lat="49.23815" lon="-0.52844">
        <ele>32</ele>
        <time>2018-02-04T09:33:25.000Z</time>
      </trkpt>
      <trkpt lat="49.23817" lon="-0.52847">
        <ele>31.799999237061</ele>
        <time>2018-02-04T09:35:27.000Z</time>
      </trkpt>
      <trkpt lat="49.23805" lon="-0.52833">
        <ele>32.200000762939</ele>
        <time>2018-02-04T09:36:16.000Z</time>
      </trkpt>
      <trkpt lat="49.23789" lon="-0.52816">
        <ele>32.599998474121</ele>
        <time>2018-02-04T09:36:32.000Z</time>
      </trkpt>
      <trkpt lat="49.23774" lon="-0.528">
        <ele>33.200000762939</ele>
        <time>2018-02-04T09:36:46.000Z</time>
      </trkpt>
      <trkpt lat="49.23761" lon="-0.52785">
        <ele>33.599998474121</ele>
        <time>2018-02-04T09:36:58.000Z</time>
      </trkpt>
      <trkpt lat="49.23759" lon="-0.52782">
        <ele>33.799999237061</ele>
        <time>2018-02-04T09:37:00.000Z</time>
      </trkpt>
      <trkpt lat="49.23753" lon="-0.52775">
        <ele>34</ele>
        <time>2018-02-04T09:37:06.000Z</time>
      </trkpt>
      <trkpt lat="49.23737" lon="-0.52758">
        <ele>34.599998474121</ele>
        <time>2018-02-04T09:37:20.000Z</time>
      </trkpt>
      <trkpt lat="49.23723" lon="-0.5274">
        <ele>35.400001525879</ele>
        <time>2018-02-04T09:37:35.000Z</time>
      </trkpt>
      <trkpt lat="49.23721" lon="-0.52737">
        <ele>35.599998474121</ele>
        <time>2018-02-04T09:37:37.000Z</time>
      </trkpt>
      <trkpt lat="49.23714" lon="-0.52729">
        <ele>36</ele>
        <time>2018-02-04T09:37:44.000Z</time>
      </trkpt>
      <trkpt lat="49.237" lon="-0.52712">
        <ele>37</ele>
        <time>2018-02-04T09:37:57.000Z</time>
      </trkpt>
      <trkpt lat="49.23686" lon="-0.52694">
        <ele>38.599998474121</ele>
        <time>2018-02-04T09:38:11.000Z</time>
      </trkpt>
      <trkpt lat="49.2367" lon="-0.52684">
        <ele>40.400001525879</ele>
        <time>2018-02-04T09:38:27.000Z</time>
      </trkpt>
      <trkpt lat="49.23657" lon="-0.52704">
        <ele>40.599998474121</ele>
        <time>2018-02-04T09:38:43.000Z</time>
      </trkpt>
      <trkpt lat="49.23652" lon="-0.52711">
        <ele>40.799999237061</ele>
        <time>2018-02-04T09:38:49.000Z</time>
      </trkpt>
      <trkpt lat="49.23637" lon="-0.52728">
        <ele>41.599998474121</ele>
        <time>2018-02-04T09:39:05.000Z</time>
      </trkpt>
      <trkpt lat="49.23625" lon="-0.52744">
        <ele>42</ele>
        <time>2018-02-04T09:39:20.000Z</time>
      </trkpt>
      <trkpt lat="49.23624" lon="-0.52752">
        <ele>41.799999237061</ele>
        <time>2018-02-04T09:39:25.000Z</time>
      </trkpt>
      <trkpt lat="49.23621" lon="-0.52781">
        <ele>41</ele>
        <time>2018-02-04T09:39:40.000Z</time>
      </trkpt>
      <trkpt lat="49.23618" lon="-0.52803">
        <ele>40.400001525879</ele>
        <time>2018-02-04T09:39:52.000Z</time>
      </trkpt>
      <trkpt lat="49.23617" lon="-0.52833">
        <ele>39.599998474121</ele>
        <time>2018-02-04T09:40:07.000Z</time>
      </trkpt>
      <trkpt lat="49.23614" lon="-0.52861">
        <ele>38.599998474121</ele>
        <time>2018-02-04T09:40:21.000Z</time>
      </trkpt>
      <trkpt lat="49.23611" lon="-0.52889">
        <ele>38</ele>
        <time>2018-02-04T09:40:34.000Z</time>
      </trkpt>
      <trkpt lat="49.23605" lon="-0.52916">
        <ele>38.200000762939</ele>
        <time>2018-02-04T09:40:49.000Z</time>
      </trkpt>
      <trkpt lat="49.23594" lon="-0.52938">
        <ele>38.599998474121</ele>
        <time>2018-02-04T09:41:03.000Z</time>
      </trkpt>
      <trkpt lat="49.23582" lon="-0.5296">
        <ele>39.200000762939</ele>
        <time>2018-02-04T09:41:18.000Z</time>
      </trkpt>
      <trkpt lat="49.23569" lon="-0.52982">
        <ele>40</ele>
        <time>2018-02-04T09:41:33.000Z</time>
      </trkpt>
      <trkpt lat="49.23556" lon="-0.53004">
        <ele>40.599998474121</ele>
        <time>2018-02-04T09:41:49.000Z</time>
      </trkpt>
      <trkpt lat="49.23544" lon="-0.53025">
        <ele>41.200000762939</ele>
        <time>2018-02-04T09:42:05.000Z</time>
      </trkpt>
      <trkpt lat="49.23532" lon="-0.53047">
        <ele>41.799999237061</ele>
        <time>2018-02-04T09:42:22.000Z</time>
      </trkpt>
      <trkpt lat="49.23521" lon="-0.53067">
        <ele>41.799999237061</ele>
        <time>2018-02-04T09:42:37.000Z</time>
      </trkpt>
      <trkpt lat="49.23509" lon="-0.53088">
        <ele>41.799999237061</ele>
        <time>2018-02-04T09:42:53.000Z</time>
      </trkpt>
      <trkpt lat="49.23505" lon="-0.53093">
        <ele>41.799999237061</ele>
        <time>2018-02-04T09:42:58.000Z</time>
      </trkpt>
      <trkpt lat="49.23505" lon="-0.53094">
        <ele>41.799999237061</ele>
        <time>2018-02-04T09:42:59.000Z</time>
      </trkpt>
      <trkpt lat="49.23495" lon="-0.53118">
        <ele>41.599998474121</ele>
        <time>2018-02-04T09:43:14.000Z</time>
      </trkpt>
      <trkpt lat="49.23486" lon="-0.53141">
        <ele>41.200000762939</ele>
        <time>2018-02-04T09:43:26.000Z</time>
      </trkpt>
      <trkpt lat="49.23478" lon="-0.53167">
        <ele>40.599998474121</ele>
        <time>2018-02-04T09:43:40.000Z</time>
      </trkpt>
      <trkpt lat="49.23477" lon="-0.5317">
        <ele>40.599998474121</ele>
        <time>2018-02-04T09:43:42.000Z</time>
      </trkpt>
      <trkpt lat="49.23475" lon="-0.53183">
        <ele>40.200000762939</ele>
        <time>2018-02-04T09:43:49.000Z</time>
      </trkpt>
      <trkpt lat="49.23472" lon="-0.53192">
        <ele>40</ele>
        <time>2018-02-04T09:43:55.000Z</time>
      </trkpt>
      <trkpt lat="49.23471" lon="-0.53221">
        <ele>39.200000762939</ele>
        <time>2018-02-04T09:44:10.000Z</time>
      </trkpt>
      <trkpt lat="49.23472" lon="-0.53238">
        <ele>38.799999237061</ele>
        <time>2018-02-04T09:44:19.000Z</time>
      </trkpt>
      <trkpt lat="49.23473" lon="-0.53248">
        <ele>38.599998474121</ele>
        <time>2018-02-04T09:44:24.000Z</time>
      </trkpt>
      <trkpt lat="49.23478" lon="-0.53274">
        <ele>37.799999237061</ele>
        <time>2018-02-04T09:44:38.000Z</time>
      </trkpt>
      <trkpt lat="49.23483" lon="-0.53301">
        <ele>36.599998474121</ele>
        <time>2018-02-04T09:44:52.000Z</time>
      </trkpt>
      <trkpt lat="49.23488" lon="-0.53328">
        <ele>35.799999237061</ele>
        <time>2018-02-04T09:45:06.000Z</time>
      </trkpt>
      <trkpt lat="49.2349" lon="-0.53339">
        <ele>35.400001525879</ele>
        <time>2018-02-04T09:45:13.000Z</time>
      </trkpt>
      <trkpt lat="49.23496" lon="-0.53366">
        <ele>34.599998474121</ele>
        <time>2018-02-04T09:45:30.000Z</time>
      </trkpt>
      <trkpt lat="49.23502" lon="-0.53393">
        <ele>33.599998474121</ele>
        <time>2018-02-04T09:45:45.000Z</time>
      </trkpt>
      <trkpt lat="49.23506" lon="-0.5342">
        <ele>32.799999237061</ele>
        <time>2018-02-04T09:45:59.000Z</time>
      </trkpt>
      <trkpt lat="49.23503" lon="-0.53437">
        <ele>32.599998474121</ele>
        <time>2018-02-04T09:46:09.000Z</time>
      </trkpt>
      <trkpt lat="49.23497" lon="-0.53465">
        <ele>32.400001525879</ele>
        <time>2018-02-04T09:46:26.000Z</time>
      </trkpt>
      <trkpt lat="49.23493" lon="-0.53493">
        <ele>32.400001525879</ele>
        <time>2018-02-04T09:46:39.000Z</time>
      </trkpt>
      <trkpt lat="49.23489" lon="-0.53521">
        <ele>32.400001525879</ele>
        <time>2018-02-04T09:46:53.000Z</time>
      </trkpt>
      <trkpt lat="49.23485" lon="-0.53549">
        <ele>32.599998474121</ele>
        <time>2018-02-04T09:47:08.000Z</time>
      </trkpt>
      <trkpt lat="49.23481" lon="-0.53576">
        <ele>33.200000762939</ele>
        <time>2018-02-04T09:47:23.000Z</time>
      </trkpt>
      <trkpt lat="49.23475" lon="-0.53602">
        <ele>33.799999237061</ele>
        <time>2018-02-04T09:47:37.000Z</time>
      </trkpt>
      <trkpt lat="49.2347" lon="-0.53631">
        <ele>34.200000762939</ele>
        <time>2018-02-04T09:47:53.000Z</time>
      </trkpt>
      <trkpt lat="49.23465" lon="-0.53652">
        <ele>34.799999237061</ele>
        <time>2018-02-04T09:48:04.000Z</time>
      </trkpt>
      <trkpt lat="49.23464" lon="-0.5366">
        <ele>35</ele>
        <time>2018-02-04T09:48:08.000Z</time>
      </trkpt>
      <trkpt lat="49.23462" lon="-0.53669">
        <ele>35.200000762939</ele>
        <time>2018-02-04T09:48:13.000Z</time>
      </trkpt>
      <trkpt lat="49.23463" lon="-0.53691">
        <ele>35.799999237061</ele>
        <time>2018-02-04T09:48:26.000Z</time>
      </trkpt>
      <trkpt lat="49.23463" lon="-0.53693">
        <ele>35.799999237061</ele>
        <time>2018-02-04T09:48:27.000Z</time>
      </trkpt>
      <trkpt lat="49.2347" lon="-0.53698">
        <ele>35.599998474121</ele>
        <time>2018-02-04T09:48:32.000Z</time>
      </trkpt>
      <trkpt lat="49.23474" lon="-0.53699">
        <ele>35.200000762939</ele>
        <time>2018-02-04T09:48:36.000Z</time>
      </trkpt>
      <trkpt lat="49.23483" lon="-0.53703">
        <ele>34.799999237061</ele>
        <time>2018-02-04T09:48:44.000Z</time>
      </trkpt>
      <trkpt lat="49.23491" lon="-0.53706">
        <ele>34.200000762939</ele>
        <time>2018-02-04T09:48:50.000Z</time>
      </trkpt>
      <trkpt lat="49.23498" lon="-0.53713">
        <ele>33.799999237061</ele>
        <time>2018-02-04T09:48:57.000Z</time>
      </trkpt>
      <trkpt lat="49.23507" lon="-0.53719">
        <ele>33.400001525879</ele>
        <time>2018-02-04T09:49:06.000Z</time>
      </trkpt>
      <trkpt lat="49.23524" lon="-0.53729">
        <ele>32.400001525879</ele>
        <time>2018-02-04T09:49:20.000Z</time>
      </trkpt>
      <trkpt lat="49.23538" lon="-0.53741">
        <ele>32.799999237061</ele>
        <time>2018-02-04T09:49:33.000Z</time>
      </trkpt>
      <trkpt lat="49.23549" lon="-0.53755">
        <ele>33.599998474121</ele>
        <time>2018-02-04T09:49:46.000Z</time>
      </trkpt>
      <trkpt lat="49.23566" lon="-0.53768">
        <ele>35</ele>
        <time>2018-02-04T09:50:02.000Z</time>
      </trkpt>
      <trkpt lat="49.23582" lon="-0.53782">
        <ele>37.599998474121</ele>
        <time>2018-02-04T09:50:19.000Z</time>
      </trkpt>
      <trkpt lat="49.23598" lon="-0.53794">
        <ele>40.200000762939</ele>
        <time>2018-02-04T09:50:34.000Z</time>
      </trkpt>
      <trkpt lat="49.23609" lon="-0.53816">
        <ele>41.599998474121</ele>
        <time>2018-02-04T09:50:50.000Z</time>
      </trkpt>
      <trkpt lat="49.23614" lon="-0.53843">
        <ele>42.200000762939</ele>
        <time>2018-02-04T09:51:06.000Z</time>
      </trkpt>
      <trkpt lat="49.23618" lon="-0.5387">
        <ele>42.799999237061</ele>
        <time>2018-02-04T09:51:23.000Z</time>
      </trkpt>
      <trkpt lat="49.23624" lon="-0.53896">
        <ele>44</ele>
        <time>2018-02-04T09:51:40.000Z</time>
      </trkpt>
      <trkpt lat="49.23629" lon="-0.53923">
        <ele>44.799999237061</ele>
        <time>2018-02-04T09:52:00.000Z</time>
      </trkpt>
      <trkpt lat="49.23629" lon="-0.53927">
        <ele>44.799999237061</ele>
        <time>2018-02-04T09:52:02.000Z</time>
      </trkpt>
      <trkpt lat="49.23632" lon="-0.53937">
        <ele>45.200000762939</ele>
        <time>2018-02-04T09:52:08.000Z</time>
      </trkpt>
      <trkpt lat="49.23634" lon="-0.53942">
        <ele>45.599998474121</ele>
        <time>2018-02-04T09:52:12.000Z</time>
      </trkpt>
      <trkpt lat="49.23636" lon="-0.53948">
        <ele>46</ele>
        <time>2018-02-04T09:52:16.000Z</time>
      </trkpt>
      <trkpt lat="49.23636" lon="-0.53952">
        <ele>46</ele>
        <time>2018-02-04T09:52:19.000Z</time>
      </trkpt>
      <trkpt lat="49.23639" lon="-0.53958">
        <ele>46.400001525879</ele>
        <time>2018-02-04T09:52:23.000Z</time>
      </trkpt>
      <trkpt lat="49.2365" lon="-0.5398">
        <ele>48.400001525879</ele>
        <time>2018-02-04T09:52:41.000Z</time>
      </trkpt>
      <trkpt lat="49.23662" lon="-0.54003">
        <ele>50.200000762939</ele>
        <time>2018-02-04T09:52:58.000Z</time>
      </trkpt>
      <trkpt lat="49.23664" lon="-0.54004">
        <ele>50.400001525879</ele>
        <time>2018-02-04T09:52:59.000Z</time>
      </trkpt>
      <trkpt lat="49.23672" lon="-0.54019">
        <ele>50.599998474121</ele>
        <time>2018-02-04T09:53:10.000Z</time>
      </trkpt>
      <trkpt lat="49.23685" lon="-0.54038">
        <ele>51.400001525879</ele>
        <time>2018-02-04T09:53:26.000Z</time>
      </trkpt>
      <trkpt lat="49.237" lon="-0.54054">
        <ele>52.599998474121</ele>
        <time>2018-02-04T09:53:41.000Z</time>
      </trkpt>
      <trkpt lat="49.23715" lon="-0.54071">
        <ele>54</ele>
        <time>2018-02-04T09:53:54.000Z</time>
      </trkpt>
      <trkpt lat="49.2373" lon="-0.54086">
        <ele>55.799999237061</ele>
        <time>2018-02-04T09:54:10.000Z</time>
      </trkpt>
      <trkpt lat="49.23746" lon="-0.54101">
        <ele>56.400001525879</ele>
        <time>2018-02-04T09:54:27.000Z</time>
      </trkpt>
      <trkpt lat="49.23763" lon="-0.54116">
        <ele>56.400001525879</ele>
        <time>2018-02-04T09:54:42.000Z</time>
      </trkpt>
      <trkpt lat="49.23778" lon="-0.54129">
        <ele>56.200000762939</ele>
        <time>2018-02-04T09:54:56.000Z</time>
      </trkpt>
      <trkpt lat="49.23793" lon="-0.54146">
        <ele>56.400001525879</ele>
        <time>2018-02-04T09:55:11.000Z</time>
      </trkpt>
      <trkpt lat="49.23809" lon="-0.54159">
        <ele>56.799999237061</ele>
        <time>2018-02-04T09:55:25.000Z</time>
      </trkpt>
      <trkpt lat="49.23818" lon="-0.54167">
        <ele>57</ele>
        <time>2018-02-04T09:55:33.000Z</time>
      </trkpt>
      <trkpt lat="49.23823" lon="-0.5417">
        <ele>57.200000762939</ele>
        <time>2018-02-04T09:55:38.000Z</time>
      </trkpt>
      <trkpt lat="49.23829" lon="-0.54179">
        <ele>57.200000762939</ele>
        <time>2018-02-04T09:56:26.000Z</time>
      </trkpt>
      <trkpt lat="49.23823" lon="-0.54198">
        <ele>56.599998474121</ele>
        <time>2018-02-04T09:57:11.000Z</time>
      </trkpt>
      <trkpt lat="49.23819" lon="-0.5421">
        <ele>56.200000762939</ele>
        <time>2018-02-04T09:57:20.000Z</time>
      </trkpt>
      <trkpt lat="49.23814" lon="-0.54236">
        <ele>56.599998474121</ele>
        <time>2018-02-04T09:57:36.000Z</time>
      </trkpt>
      <trkpt lat="49.23815" lon="-0.54237">
        <ele>56.599998474121</ele>
        <time>2018-02-04T09:57:37.000Z</time>
      </trkpt>
      <trkpt lat="49.23828" lon="-0.54256">
        <ele>57.400001525879</ele>
        <time>2018-02-04T09:57:52.000Z</time>
      </trkpt>
      <trkpt lat="49.23829" lon="-0.54256">
        <ele>57.400001525879</ele>
        <time>2018-02-04T09:57:53.000Z</time>
      </trkpt>
      <trkpt lat="49.23834" lon="-0.54263">
        <ele>57.400001525879</ele>
        <time>2018-02-04T09:57:59.000Z</time>
      </trkpt>
      <trkpt lat="49.2385" lon="-0.54281">
        <ele>57.200000762939</ele>
        <time>2018-02-04T09:58:14.000Z</time>
      </trkpt>
      <trkpt lat="49.23865" lon="-0.54296">
        <ele>57</ele>
        <time>2018-02-04T09:58:28.000Z</time>
      </trkpt>
      <trkpt lat="49.23879" lon="-0.54314">
        <ele>57.200000762939</ele>
        <time>2018-02-04T09:58:42.000Z</time>
      </trkpt>
      <trkpt lat="49.23894" lon="-0.54331">
        <ele>57.400001525879</ele>
        <time>2018-02-04T09:58:56.000Z</time>
      </trkpt>
      <trkpt lat="49.23909" lon="-0.54348">
        <ele>57.599998474121</ele>
        <time>2018-02-04T09:59:10.000Z</time>
      </trkpt>
      <trkpt lat="49.23924" lon="-0.54364">
        <ele>57.799999237061</ele>
        <time>2018-02-04T09:59:24.000Z</time>
      </trkpt>
      <trkpt lat="49.23938" lon="-0.54381">
        <ele>58</ele>
        <time>2018-02-04T09:59:39.000Z</time>
      </trkpt>
      <trkpt lat="49.23954" lon="-0.54399">
        <ele>58</ele>
        <time>2018-02-04T09:59:54.000Z</time>
      </trkpt>
      <trkpt lat="49.23968" lon="-0.54415">
        <ele>57.799999237061</ele>
        <time>2018-02-04T10:00:09.000Z</time>
      </trkpt>
      <trkpt lat="49.23983" lon="-0.54433">
        <ele>57.599998474121</ele>
        <time>2018-02-04T10:00:24.000Z</time>
      </trkpt>
      <trkpt lat="49.23999" lon="-0.5445">
        <ele>57.799999237061</ele>
        <time>2018-02-04T10:00:39.000Z</time>
      </trkpt>
      <trkpt lat="49.24014" lon="-0.54467">
        <ele>58</ele>
        <time>2018-02-04T10:00:54.000Z</time>
      </trkpt>
      <trkpt lat="49.2403" lon="-0.54482">
        <ele>58</ele>
        <time>2018-02-04T10:01:11.000Z</time>
      </trkpt>
      <trkpt lat="49.24031" lon="-0.54484">
        <ele>58</ele>
        <time>2018-02-04T10:01:13.000Z</time>
      </trkpt>
      <trkpt lat="49.24045" lon="-0.545">
        <ele>58</ele>
        <time>2018-02-04T10:01:27.000Z</time>
      </trkpt>
      <trkpt lat="49.24059" lon="-0.54517">
        <ele>58</ele>
        <time>2018-02-04T10:01:42.000Z</time>
      </trkpt>
      <trkpt lat="49.24074" lon="-0.54534">
        <ele>58.599998474121</ele>
        <time>2018-02-04T10:01:57.000Z</time>
      </trkpt>
      <trkpt lat="49.24088" lon="-0.54553">
        <ele>59.400001525879</ele>
        <time>2018-02-04T10:02:12.000Z</time>
      </trkpt>
      <trkpt lat="49.24103" lon="-0.54571">
        <ele>59.799999237061</ele>
        <time>2018-02-04T10:02:28.000Z</time>
      </trkpt>
      <trkpt lat="49.24117" lon="-0.54589">
        <ele>60</ele>
        <time>2018-02-04T10:02:43.000Z</time>
      </trkpt>
      <trkpt lat="49.24132" lon="-0.54607">
        <ele>60.200000762939</ele>
        <time>2018-02-04T10:02:58.000Z</time>
      </trkpt>
      <trkpt lat="49.24146" lon="-0.54625">
        <ele>60.200000762939</ele>
        <time>2018-02-04T10:03:13.000Z</time>
      </trkpt>
      <trkpt lat="49.2416" lon="-0.54643">
        <ele>60.200000762939</ele>
        <time>2018-02-04T10:03:27.000Z</time>
      </trkpt>
      <trkpt lat="49.24174" lon="-0.54662">
        <ele>60.200000762939</ele>
        <time>2018-02-04T10:03:42.000Z</time>
      </trkpt>
      <trkpt lat="49.24188" lon="-0.5468">
        <ele>60</ele>
        <time>2018-02-04T10:03:57.000Z</time>
      </trkpt>
      <trkpt lat="49.24203" lon="-0.54699">
        <ele>60</ele>
        <time>2018-02-04T10:04:11.000Z</time>
      </trkpt>
      <trkpt lat="49.24218" lon="-0.54717">
        <ele>60.200000762939</ele>
        <time>2018-02-04T10:04:26.000Z</time>
      </trkpt>
      <trkpt lat="49.24221" lon="-0.54722">
        <ele>60.400001525879</ele>
        <time>2018-02-04T10:04:30.000Z</time>
      </trkpt>
      <trkpt lat="49.24225" lon="-0.54727">
        <ele>60.599998474121</ele>
        <time>2018-02-04T10:04:34.000Z</time>
      </trkpt>
      <trkpt lat="49.24238" lon="-0.54746">
        <ele>61.200000762939</ele>
        <time>2018-02-04T10:04:49.000Z</time>
      </trkpt>
      <trkpt lat="49.24252" lon="-0.54764">
        <ele>61.599998474121</ele>
        <time>2018-02-04T10:05:03.000Z</time>
      </trkpt>
      <trkpt lat="49.24266" lon="-0.54784">
        <ele>61.799999237061</ele>
        <time>2018-02-04T10:05:18.000Z</time>
      </trkpt>
      <trkpt lat="49.2428" lon="-0.54804">
        <ele>62</ele>
        <time>2018-02-04T10:05:33.000Z</time>
      </trkpt>
      <trkpt lat="49.24293" lon="-0.54823">
        <ele>61.799999237061</ele>
        <time>2018-02-04T10:05:47.000Z</time>
      </trkpt>
      <trkpt lat="49.24305" lon="-0.54843">
        <ele>61.599998474121</ele>
        <time>2018-02-04T10:06:02.000Z</time>
      </trkpt>
      <trkpt lat="49.24319" lon="-0.54862">
        <ele>61.799999237061</ele>
        <time>2018-02-04T10:06:17.000Z</time>
      </trkpt>
      <trkpt lat="49.24332" lon="-0.54882">
        <ele>62</ele>
        <time>2018-02-04T10:06:33.000Z</time>
      </trkpt>
      <trkpt lat="49.24333" lon="-0.54883">
        <ele>62</ele>
        <time>2018-02-04T10:06:34.000Z</time>
      </trkpt>
      <trkpt lat="49.24347" lon="-0.54902">
        <ele>62</ele>
        <time>2018-02-04T10:06:49.000Z</time>
      </trkpt>
      <trkpt lat="49.24361" lon="-0.5492">
        <ele>62</ele>
        <time>2018-02-04T10:07:04.000Z</time>
      </trkpt>
      <trkpt lat="49.24375" lon="-0.5494">
        <ele>61.799999237061</ele>
        <time>2018-02-04T10:07:19.000Z</time>
      </trkpt>
      <trkpt lat="49.24388" lon="-0.54961">
        <ele>61.400001525879</ele>
        <time>2018-02-04T10:07:35.000Z</time>
      </trkpt>
      <trkpt lat="49.24402" lon="-0.54981">
        <ele>60.799999237061</ele>
        <time>2018-02-04T10:07:50.000Z</time>
      </trkpt>
      <trkpt lat="49.24414" lon="-0.55001">
        <ele>60.400001525879</ele>
        <time>2018-02-04T10:08:04.000Z</time>
      </trkpt>
      <trkpt lat="49.24428" lon="-0.5502">
        <ele>60.200000762939</ele>
        <time>2018-02-04T10:08:17.000Z</time>
      </trkpt>
      <trkpt lat="49.24441" lon="-0.55039">
        <ele>60</ele>
        <time>2018-02-04T10:08:31.000Z</time>
      </trkpt>
      <trkpt lat="49.24446" lon="-0.55046">
        <ele>60</ele>
        <time>2018-02-04T10:08:37.000Z</time>
      </trkpt>
      <trkpt lat="49.24449" lon="-0.55048">
        <ele>59.799999237061</ele>
        <time>2018-02-04T10:08:40.000Z</time>
      </trkpt>
      <trkpt lat="49.24457" lon="-0.5506">
        <ele>59.400001525879</ele>
        <time>2018-02-04T10:09:17.000Z</time>
      </trkpt>
      <trkpt lat="49.24471" lon="-0.5508">
        <ele>58.799999237061</ele>
        <time>2018-02-04T10:09:38.000Z</time>
      </trkpt>
      <trkpt lat="49.24483" lon="-0.55098">
        <ele>58.200000762939</ele>
        <time>2018-02-04T10:09:51.000Z</time>
      </trkpt>
      <trkpt lat="49.2449" lon="-0.55106">
        <ele>58.200000762939</ele>
        <time>2018-02-04T10:09:59.000Z</time>
      </trkpt>
      <trkpt lat="49.24496" lon="-0.55112">
        <ele>58.200000762939</ele>
        <time>2018-02-04T10:10:05.000Z</time>
      </trkpt>
      <trkpt lat="49.24514" lon="-0.5512">
        <ele>58</ele>
        <time>2018-02-04T10:10:20.000Z</time>
      </trkpt>
      <trkpt lat="49.24533" lon="-0.55125">
        <ele>57.799999237061</ele>
        <time>2018-02-04T10:10:35.000Z</time>
      </trkpt>
      <trkpt lat="49.24552" lon="-0.55126">
        <ele>57.599998474121</ele>
        <time>2018-02-04T10:10:49.000Z</time>
      </trkpt>
      <trkpt lat="49.24571" lon="-0.55127">
        <ele>57.400001525879</ele>
        <time>2018-02-04T10:11:03.000Z</time>
      </trkpt>
      <trkpt lat="49.2459" lon="-0.55124">
        <ele>57.200000762939</ele>
        <time>2018-02-04T10:11:17.000Z</time>
      </trkpt>
      <trkpt lat="49.24607" lon="-0.55119">
        <ele>56.799999237061</ele>
        <time>2018-02-04T10:11:30.000Z</time>
      </trkpt>
      <trkpt lat="49.24625" lon="-0.5512">
        <ele>57</ele>
        <time>2018-02-04T10:11:44.000Z</time>
      </trkpt>
      <trkpt lat="49.24634" lon="-0.55122">
        <ele>57.200000762939</ele>
        <time>2018-02-04T10:11:52.000Z</time>
      </trkpt>
      <trkpt lat="49.24653" lon="-0.55127">
        <ele>57.400001525879</ele>
        <time>2018-02-04T10:12:08.000Z</time>
      </trkpt>
      <trkpt lat="49.24671" lon="-0.55132">
        <ele>57.599998474121</ele>
        <time>2018-02-04T10:12:22.000Z</time>
      </trkpt>
      <trkpt lat="49.24689" lon="-0.5514">
        <ele>58</ele>
        <time>2018-02-04T10:12:37.000Z</time>
      </trkpt>
      <trkpt lat="49.2469" lon="-0.5514">
        <ele>58</ele>
        <time>2018-02-04T10:12:38.000Z</time>
      </trkpt>
      <trkpt lat="49.24708" lon="-0.5515">
        <ele>58.200000762939</ele>
        <time>2018-02-04T10:12:54.000Z</time>
      </trkpt>
      <trkpt lat="49.24724" lon="-0.55163">
        <ele>58.599998474121</ele>
        <time>2018-02-04T10:13:08.000Z</time>
      </trkpt>
      <trkpt lat="49.24741" lon="-0.55175">
        <ele>59</ele>
        <time>2018-02-04T10:13:22.000Z</time>
      </trkpt>
      <trkpt lat="49.24758" lon="-0.55188">
        <ele>59.400001525879</ele>
        <time>2018-02-04T10:13:38.000Z</time>
      </trkpt>
      <trkpt lat="49.24775" lon="-0.552">
        <ele>59.799999237061</ele>
        <time>2018-02-04T10:13:53.000Z</time>
      </trkpt>
      <trkpt lat="49.24777" lon="-0.55201">
        <ele>60</ele>
        <time>2018-02-04T10:13:55.000Z</time>
      </trkpt>
      <trkpt lat="49.24793" lon="-0.55215">
        <ele>60.200000762939</ele>
        <time>2018-02-04T10:14:11.000Z</time>
      </trkpt>
      <trkpt lat="49.24798" lon="-0.55224">
        <ele>60.200000762939</ele>
        <time>2018-02-04T10:14:19.000Z</time>
      </trkpt>
      <trkpt lat="49.24798" lon="-0.55231">
        <ele>60</ele>
        <time>2018-02-04T10:14:25.000Z</time>
      </trkpt>
      <trkpt lat="49.2479" lon="-0.55257">
        <ele>59.599998474121</ele>
        <time>2018-02-04T10:14:43.000Z</time>
      </trkpt>
      <trkpt lat="49.24779" lon="-0.55281">
        <ele>59.200000762939</ele>
        <time>2018-02-04T10:14:58.000Z</time>
      </trkpt>
      <trkpt lat="49.24772" lon="-0.55303">
        <ele>59</ele>
        <time>2018-02-04T10:15:11.000Z</time>
      </trkpt>
      <trkpt lat="49.24762" lon="-0.55328">
        <ele>59.400001525879</ele>
        <time>2018-02-04T10:15:27.000Z</time>
      </trkpt>
      <trkpt lat="49.24751" lon="-0.55351">
        <ele>59.799999237061</ele>
        <time>2018-02-04T10:15:42.000Z</time>
      </trkpt>
      <trkpt lat="49.24742" lon="-0.55376">
        <ele>60.400001525879</ele>
        <time>2018-02-04T10:15:56.000Z</time>
      </trkpt>
      <trkpt lat="49.24733" lon="-0.554">
        <ele>60.599998474121</ele>
        <time>2018-02-04T10:16:10.000Z</time>
      </trkpt>
      <trkpt lat="49.24724" lon="-0.55424">
        <ele>60.799999237061</ele>
        <time>2018-02-04T10:16:24.000Z</time>
      </trkpt>
      <trkpt lat="49.24715" lon="-0.55449">
        <ele>61</ele>
        <time>2018-02-04T10:16:39.000Z</time>
      </trkpt>
      <trkpt lat="49.24705" lon="-0.55473">
        <ele>61.200000762939</ele>
        <time>2018-02-04T10:16:54.000Z</time>
      </trkpt>
      <trkpt lat="49.24702" lon="-0.55485">
        <ele>61</ele>
        <time>2018-02-04T10:17:01.000Z</time>
      </trkpt>
      <trkpt lat="49.24713" lon="-0.55505">
        <ele>61.200000762939</ele>
        <time>2018-02-04T10:17:16.000Z</time>
      </trkpt>
      <trkpt lat="49.24724" lon="-0.55522">
        <ele>61.400001525879</ele>
        <time>2018-02-04T10:17:29.000Z</time>
      </trkpt>
      <trkpt lat="49.24737" lon="-0.55542">
        <ele>61.799999237061</ele>
        <time>2018-02-04T10:17:44.000Z</time>
      </trkpt>
      <trkpt lat="49.2475" lon="-0.55561">
        <ele>62.400001525879</ele>
        <time>2018-02-04T10:17:59.000Z</time>
      </trkpt>
      <trkpt lat="49.24763" lon="-0.55581">
        <ele>62.799999237061</ele>
        <time>2018-02-04T10:18:14.000Z</time>
      </trkpt>
      <trkpt lat="49.24776" lon="-0.556">
        <ele>63</ele>
        <time>2018-02-04T10:18:29.000Z</time>
      </trkpt>
      <trkpt lat="49.24789" lon="-0.55619">
        <ele>63</ele>
        <time>2018-02-04T10:18:43.000Z</time>
      </trkpt>
      <trkpt lat="49.24793" lon="-0.55627">
        <ele>63</ele>
        <time>2018-02-04T10:18:48.000Z</time>
      </trkpt>
      <trkpt lat="49.24797" lon="-0.55634">
        <ele>63.200000762939</ele>
        <time>2018-02-04T10:18:53.000Z</time>
      </trkpt>
      <trkpt lat="49.24809" lon="-0.55654">
        <ele>63.599998474121</ele>
        <time>2018-02-04T10:19:08.000Z</time>
      </trkpt>
      <trkpt lat="49.24819" lon="-0.55667">
        <ele>63.799999237061</ele>
        <time>2018-02-04T10:19:18.000Z</time>
      </trkpt>
      <trkpt lat="49.24822" lon="-0.55671">
        <ele>64</ele>
        <time>2018-02-04T10:19:22.000Z</time>
      </trkpt>
      <trkpt lat="49.24836" lon="-0.55691">
        <ele>64</ele>
        <time>2018-02-04T10:19:37.000Z</time>
      </trkpt>
      <trkpt lat="49.24849" lon="-0.55712">
        <ele>64</ele>
        <time>2018-02-04T10:19:53.000Z</time>
      </trkpt>
      <trkpt lat="49.24862" lon="-0.55732">
        <ele>64</ele>
        <time>2018-02-04T10:20:08.000Z</time>
      </trkpt>
      <trkpt lat="49.24875" lon="-0.55753">
        <ele>64</ele>
        <time>2018-02-04T10:20:23.000Z</time>
      </trkpt>
      <trkpt lat="49.24889" lon="-0.55771">
        <ele>64</ele>
        <time>2018-02-04T10:20:39.000Z</time>
      </trkpt>
      <trkpt lat="49.24902" lon="-0.55792">
        <ele>64</ele>
        <time>2018-02-04T10:20:55.000Z</time>
      </trkpt>
      <trkpt lat="49.24915" lon="-0.55813">
        <ele>64.199996948242</ele>
        <time>2018-02-04T10:21:11.000Z</time>
      </trkpt>
      <trkpt lat="49.24928" lon="-0.55833">
        <ele>64.199996948242</ele>
        <time>2018-02-04T10:21:26.000Z</time>
      </trkpt>
      <trkpt lat="49.24941" lon="-0.55854">
        <ele>64</ele>
        <time>2018-02-04T10:21:41.000Z</time>
      </trkpt>
      <trkpt lat="49.24953" lon="-0.55876">
        <ele>64</ele>
        <time>2018-02-04T10:21:57.000Z</time>
      </trkpt>
      <trkpt lat="49.24958" lon="-0.55884">
        <ele>64.199996948242</ele>
        <time>2018-02-04T10:22:02.000Z</time>
      </trkpt>
      <trkpt lat="49.24969" lon="-0.55905">
        <ele>64.199996948242</ele>
        <time>2018-02-04T10:22:16.000Z</time>
      </trkpt>
      <trkpt lat="49.24981" lon="-0.55928">
        <ele>64.400001525879</ele>
        <time>2018-02-04T10:22:31.000Z</time>
      </trkpt>
      <trkpt lat="49.24991" lon="-0.55952">
        <ele>64.599998474121</ele>
        <time>2018-02-04T10:22:46.000Z</time>
      </trkpt>
      <trkpt lat="49.24999" lon="-0.55977">
        <ele>64.599998474121</ele>
        <time>2018-02-04T10:23:01.000Z</time>
      </trkpt>
      <trkpt lat="49.25005" lon="-0.55997">
        <ele>64.800003051758</ele>
        <time>2018-02-04T10:23:14.000Z</time>
      </trkpt>
      <trkpt lat="49.25007" lon="-0.56016">
        <ele>64.800003051758</ele>
        <time>2018-02-04T10:23:26.000Z</time>
      </trkpt>
      <trkpt lat="49.25013" lon="-0.56044">
        <ele>64.800003051758</ele>
        <time>2018-02-04T10:23:42.000Z</time>
      </trkpt>
      <trkpt lat="49.2502" lon="-0.5607">
        <ele>64.599998474121</ele>
        <time>2018-02-04T10:23:56.000Z</time>
      </trkpt>
      <trkpt lat="49.25027" lon="-0.56096">
        <ele>64.400001525879</ele>
        <time>2018-02-04T10:24:10.000Z</time>
      </trkpt>
      <trkpt lat="49.25032" lon="-0.5612">
        <ele>64.199996948242</ele>
        <time>2018-02-04T10:24:23.000Z</time>
      </trkpt>
      <trkpt lat="49.25042" lon="-0.56144">
        <ele>63.799999237061</ele>
        <time>2018-02-04T10:24:38.000Z</time>
      </trkpt>
      <trkpt lat="49.25045" lon="-0.56149">
        <ele>63.799999237061</ele>
        <time>2018-02-04T10:24:41.000Z</time>
      </trkpt>
      <trkpt lat="49.2505" lon="-0.56159">
        <ele>63.799999237061</ele>
        <time>2018-02-04T10:24:47.000Z</time>
      </trkpt>
      <trkpt lat="49.25057" lon="-0.56169">
        <ele>63.599998474121</ele>
        <time>2018-02-04T10:24:54.000Z</time>
      </trkpt>
      <trkpt lat="49.25061" lon="-0.56182">
        <ele>63.599998474121</ele>
        <time>2018-02-04T10:25:01.000Z</time>
      </trkpt>
      <trkpt lat="49.25073" lon="-0.56201">
        <ele>62.799999237061</ele>
        <time>2018-02-04T10:25:14.000Z</time>
      </trkpt>
      <trkpt lat="49.25087" lon="-0.5622">
        <ele>61.799999237061</ele>
        <time>2018-02-04T10:25:28.000Z</time>
      </trkpt>
      <trkpt lat="49.25101" lon="-0.56236">
        <ele>61</ele>
        <time>2018-02-04T10:25:41.000Z</time>
      </trkpt>
      <trkpt lat="49.251" lon="-0.56243">
        <ele>60.799999237061</ele>
        <time>2018-02-04T10:25:45.000Z</time>
      </trkpt>
      <trkpt lat="49.25088" lon="-0.56265">
        <ele>60.799999237061</ele>
        <time>2018-02-04T10:25:59.000Z</time>
      </trkpt>
      <trkpt lat="49.25083" lon="-0.5628">
        <ele>60.599998474121</ele>
        <time>2018-02-04T10:26:08.000Z</time>
      </trkpt>
      <trkpt lat="49.2507" lon="-0.56298">
        <ele>60.599998474121</ele>
        <time>2018-02-04T10:26:23.000Z</time>
      </trkpt>
      <trkpt lat="49.25069" lon="-0.56299">
        <ele>60.599998474121</ele>
        <time>2018-02-04T10:26:24.000Z</time>
      </trkpt>
      <trkpt lat="49.25054" lon="-0.56318">
        <ele>60.599998474121</ele>
        <time>2018-02-04T10:26:42.000Z</time>
      </trkpt>
      <trkpt lat="49.2505" lon="-0.56325">
        <ele>60.599998474121</ele>
        <time>2018-02-04T10:26:47.000Z</time>
      </trkpt>
      <trkpt lat="49.25045" lon="-0.56336">
        <ele>60.599998474121</ele>
        <time>2018-02-04T10:26:55.000Z</time>
      </trkpt>
    </trkseg>
  </trk>
</gpx>